Observation data for Guadalupe Mtns Park on 05/24/2019      Previous  Date  Next       Current Mesonet Observations  Soil Data  Daily Summary Page  Observations in Plain Language
KGU1 240500Z 34018KT 21/M05 A3004 RMK A01 T02081046  RH  018%=      5-min Rain = 0
KGU1 240501Z 34014KT 20/M05 A3004 RMK A01 T02031046  RH  018%=      5-min Rain = 0
KGU1 240502Z 33017KT 20/M05 A3004 RMK A01 T02011047  RH  019%=      5-min Rain = 0
KGU1 240503Z 33016KT 20/M05 A3004 RMK A01 T02011048  RH  018%=      5-min Rain = 0
KGU1 240504Z 33013KT 20/M05 A3004 RMK A01 T02031048  RH  018%=      5-min Rain = 0
KGU1 240505Z 35009KT 20/M05 A3005 RMK A01 T02031048  RH  018%=      5-min Rain = 0
KGU1 240506Z 00010KT 20/M05 A3005 RMK A01 T02021048  RH  018%=      5-min Rain = 0
KGU1 240507Z 02008KT 20/M05 A3005 RMK A01 T02011048  RH  018%=      5-min Rain = 0
KGU1 240508Z 04005KT 20/M05 A3005 RMK A01 T02011048  RH  018%=      5-min Rain = 0
KGU1 240509Z 05007KT 20/M05 A3005 RMK A01 T02011048  RH  018%=      5-min Rain = 0
KGU1 240510Z 05007KT 20/M05 A3005 RMK A01 T02021048  RH  018%=      5-min Rain = 0
KGU1 240511Z 03005KT 20/M05 A3005 RMK A01 T02031047  RH  018%=      5-min Rain = 0
KGU1 240512Z 01006KT 20/M05 A3005 RMK A01 T02021048  RH  018%=      5-min Rain = 0
KGU1 240513Z 03002KT 20/M05 A3005 RMK A01 T02011048  RH  018%=      5-min Rain = 0
KGU1 240514Z 02000KT 20/M05 A3005 RMK A01 T02011047  RH  018%=      5-min Rain = 0
KGU1 240515Z 02001KT 20/M05 A3005 RMK A01 T02001048  RH  018%=      5-min Rain = 0
KGU1 240516Z 36002KT 20/M05 A3005 RMK A01 T01991048  RH  019%=      5-min Rain = 0
KGU1 240517Z 00005KT 20/M05 A3005 RMK A01 T01991048  RH  018%=      5-min Rain = 0
KGU1 240518Z 35005KT 20/M05 A3005 RMK A01 T02001048  RH  018%=      5-min Rain = 0
KGU1 240519Z 33006KT 20/M05 A3005 RMK A01 T02001049  RH  018%=      5-min Rain = 0
KGU1 240520Z 34006KT 20/M05 A3005 RMK A01 T02011049  RH  018%=      5-min Rain = 0
KGU1 240521Z 33007KT 20/M05 A3005 RMK A01 T02011048  RH  018%=      5-min Rain = 0
KGU1 240522Z 32005KT 20/M05 A3005 RMK A01 T02011048  RH  018%=      5-min Rain = 0
KGU1 240523Z 32007KT 20/M05 A3005 RMK A01 T02001049  RH  018%=      5-min Rain = 0
KGU1 240524Z 34005KT 20/M05 A3005 RMK A01 T01981049  RH  018%=      5-min Rain = 0
KGU1 240525Z 34005KT 20/M05 A3005 RMK A01 T02001050  RH  018%=      5-min Rain = 0
KGU1 240526Z 34006KT 20/M05 A3005 RMK A01 T02011050  RH  018%=      5-min Rain = 0
KGU1 240527Z 34006KT 20/M05 A3005 RMK A01 T02021050  RH  018%=      5-min Rain = 0
KGU1 240528Z 34008KT 20/M05 A3005 RMK A01 T02011049  RH  018%=      5-min Rain = 0
KGU1 240529Z 33007KT 20/M05 A3005 RMK A01 T02001050  RH  018%=      5-min Rain = 0
KGU1 240530Z 32005KT 20/M05 A3005 RMK A01 T02011050  RH  018%=      5-min Rain = 0
KGU1 240531Z 32005KT 20/M05 A3005 RMK A01 T02021049  RH  018%=      5-min Rain = 0
KGU1 240532Z 29005KT 20/M05 A3005 RMK A01 T02031050  RH  018%=      5-min Rain = 0
KGU1 240533Z 30007KT 20/M05 A3005 RMK A01 T02001050  RH  018%=      5-min Rain = 0
KGU1 240534Z 31008KT 20/M05 A3005 RMK A01 T01971050  RH  018%=      5-min Rain = 0
KGU1 240535Z 32006KT 20/M05 A3005 RMK A01 T01961050  RH  019%=      5-min Rain = 0
KGU1 240536Z 31007KT 20/M05 A3005 RMK A01 T01961050  RH  018%=      5-min Rain = 0
KGU1 240537Z 33007KT 20/M05 A3005 RMK A01 T01961051  RH  019%=      5-min Rain = 0
KGU1 240538Z 33008KT 20/M05 A3005 RMK A01 T01961051  RH  018%=      5-min Rain = 0
KGU1 240539Z 31007KT 20/M05 A3005 RMK A01 T01991051  RH  018%=      5-min Rain = 0
KGU1 240540Z 30006KT 20/M05 A3005 RMK A01 T01991051  RH  018%=      5-min Rain = 0
KGU1 240541Z 33005KT 20/M05 A3005 RMK A01 T01961051  RH  018%=      5-min Rain = 0
KGU1 240542Z 33007KT 19/M05 A3005 RMK A01 T01941051  RH  019%=      5-min Rain = 0
KGU1 240543Z 33007KT 20/M05 A3005 RMK A01 T01951051  RH  019%=      5-min Rain = 0
KGU1 240544Z 33009KT 20/M05 A3005 RMK A01 T01951051  RH  018%=      5-min Rain = 0
KGU1 240545Z 32008KT 20/M05 A3005 RMK A01 T01961052  RH  018%=      5-min Rain = 0
KGU1 240546Z 32008KT 20/M05 A3005 RMK A01 T01951052  RH  018%=      5-min Rain = 0
KGU1 240547Z 29007KT 19/M05 A3005 RMK A01 T01941052  RH  018%=      5-min Rain = 0
KGU1 240548Z 29008KT 19/M05 A3005 RMK A01 T01931052  RH  019%=      5-min Rain = 0
KGU1 240549Z 29008KT 19/M05 A3005 RMK A01 T01911052  RH  019%=      5-min Rain = 0
KGU1 240550Z 29008KT 19/M05 A3005 RMK A01 T01901051  RH  019%=      5-min Rain = 0
KGU1 240551Z 29008KT 19/M05 A3005 RMK A01 T01881051  RH  019%=      5-min Rain = 0
KGU1 240552Z 29009KT 19/M05 A3005 RMK A01 T01871052  RH  019%=      5-min Rain = 0
KGU1 240553Z 29009KT 19/M05 A3005 RMK A01 T01881053  RH  019%=      5-min Rain = 0
KGU1 240554Z 30010KT 19/M05 A3005 RMK A01 T01881053  RH  019%=      5-min Rain = 0
KGU1 240555Z 31009KT 19/M05 A3005 RMK A01 T01901054  RH  019%=      5-min Rain = 0
KGU1 240556Z 31009KT 19/M05 A3005 RMK A01 T01921054  RH  018%=      5-min Rain = 0
KGU1 240557Z 32007KT 19/M05 A3005 RMK A01 T01931054  RH  018%=      5-min Rain = 0
KGU1 240558Z 32007KT 19/M06 A3005 RMK A01 T01941055  RH  018%=      5-min Rain = 0
KGU1 240559Z 32007KT 19/M06 A3005 RMK A01 T01931055  RH  018%=      5-min Rain = 0
KGU1 240600Z 31006KT 19/M06 A3005 RMK A01 T01931055  RH  018%=      5-min Rain = 0
KGU1 240601Z 31008KT 19/M06 A3005 RMK A01 T01901055  RH  019%=      5-min Rain = 0
KGU1 240602Z 31009KT 19/M06 A3005 RMK A01 T01891055  RH  019%=      5-min Rain = 0
KGU1 240603Z 32010KT 19/M06 A3006 RMK A01 T01921055  RH  018%=      5-min Rain = 0
KGU1 240604Z 32010KT 19/M06 A3006 RMK A01 T01941055  RH  018%=      5-min Rain = 0
KGU1 240605Z 32009KT 20/M06 A3006 RMK A01 T01951055  RH  018%=      5-min Rain = 0
KGU1 240606Z 31008KT 20/M06 A3006 RMK A01 T01951055  RH  018%=      5-min Rain = 0
KGU1 240607Z 30009KT 19/M06 A3006 RMK A01 T01931055  RH  018%=      5-min Rain = 0
KGU1 240608Z 30011KT 19/M06 A3006 RMK A01 T01901055  RH  018%=      5-min Rain = 0
KGU1 240609Z 29009KT 19/M06 A3006 RMK A01 T01891055  RH  019%=      5-min Rain = 0
KGU1 240610Z 30008KT 19/M06 A3005 RMK A01 T01891055  RH  019%=      5-min Rain = 0
KGU1 240611Z 30009G14KT 19/M06 A3005 RMK A01 T01901055  RH  019%=      5-min Rain = 0
KGU1 240612Z 29009KT 19/M06 A3005 RMK A01 T01911056  RH  018%=      5-min Rain = 0
KGU1 240613Z 29012KT 19/M06 A3005 RMK A01 T01911056  RH  018%=      5-min Rain = 0
KGU1 240614Z 29010KT 19/M06 A3005 RMK A01 T01921056  RH  018%=      5-min Rain = 0
KGU1 240615Z 29012KT 19/M06 A3006 RMK A01 T01921056  RH  018%=      5-min Rain = 0
KGU1 240616Z 30011KT 19/M06 A3005 RMK A01 T01911056  RH  018%=      5-min Rain = 0
KGU1 240617Z 30013KT 19/M06 A3005 RMK A01 T01901055  RH  019%=      5-min Rain = 0
KGU1 240618Z 29013KT 19/M06 A3005 RMK A01 T01891055  RH  019%=      5-min Rain = 0
KGU1 240619Z 30012KT 19/M06 A3005 RMK A01 T01881056  RH  019%=      5-min Rain = 0
KGU1 240620Z 30011KT 19/M06 A3005 RMK A01 T01871055  RH  019%=      5-min Rain = 0
KGU1 240621Z 30014KT 19/M06 A3005 RMK A01 T01861056  RH  019%=      5-min Rain = 0
KGU1 240622Z 30011KT 19/M06 A3006 RMK A01 T01861056  RH  019%=      5-min Rain = 0
KGU1 240623Z 30012KT 19/M06 A3005 RMK A01 T01851056  RH  019%=      5-min Rain = 0
KGU1 240624Z 30012KT 18/M06 A3006 RMK A01 T01841056  RH  019%=      5-min Rain = 0
KGU1 240625Z 30010KT 18/M06 A3006 RMK A01 T01841056  RH  019%=      5-min Rain = 0
KGU1 240626Z 30012KT 18/M06 A3005 RMK A01 T01831056  RH  019%=      5-min Rain = 0
KGU1 240627Z 30010KT 18/M06 A3006 RMK A01 T01831056  RH  019%=      5-min Rain = 0
KGU1 240628Z 29010KT 18/M06 A3006 RMK A01 T01831056  RH  019%=      5-min Rain = 0
KGU1 240629Z 29010KT 18/M06 A3006 RMK A01 T01821056  RH  019%=      5-min Rain = 0
KGU1 240630Z 30009KT 18/M06 A3006 RMK A01 T01811056  RH  020%=      5-min Rain = 0
KGU1 240631Z 31009KT 18/M06 A3006 RMK A01 T01811056  RH  019%=      5-min Rain = 0
KGU1 240632Z 33009KT 18/M06 A3006 RMK A01 T01811055  RH  020%=      5-min Rain = 0
KGU1 240633Z 35007KT 18/M06 A3006 RMK A01 T01811055  RH  020%=      5-min Rain = 0
KGU1 240634Z 36005KT 18/M05 A3006 RMK A01 T01821054  RH  020%=      5-min Rain = 0
KGU1 240635Z 00006KT 18/M05 A3006 RMK A01 T01841054  RH  019%=      5-min Rain = 0
KGU1 240636Z 33005KT 19/M06 A3006 RMK A01 T01881055  RH  019%=      5-min Rain = 0
KGU1 240637Z 31006KT 19/M05 A3006 RMK A01 T01881054  RH  019%=      5-min Rain = 0
KGU1 240638Z 31004KT 19/M05 A3006 RMK A01 T01891053  RH  019%=      5-min Rain = 0
KGU1 240639Z 32005KT 19/M05 A3006 RMK A01 T01881052  RH  019%=      5-min Rain = 0
KGU1 240640Z 32004KT 19/M05 A3006 RMK A01 T01861052  RH  020%=      5-min Rain = 0
KGU1 240641Z 31004KT 18/M05 A3006 RMK A01 T01841051  RH  020%=      5-min Rain = 0
KGU1 240642Z 31005KT 18/M05 A3006 RMK A01 T01831051  RH  020%=      5-min Rain = 0
KGU1 240643Z 30005KT 18/M05 A3006 RMK A01 T01811051  RH  020%=      5-min Rain = 0
KGU1 240644Z 30006KT 18/M05 A3006 RMK A01 T01781052  RH  020%=      5-min Rain = 0
KGU1 240645Z 31007KT 18/M05 A3005 RMK A01 T01751053  RH  021%=      5-min Rain = 0
KGU1 240646Z 30007KT 18/M05 A3006 RMK A01 T01761054  RH  020%=      5-min Rain = 0
KGU1 240647Z 30007KT 18/M06 A3006 RMK A01 T01791055  RH  020%=      5-min Rain = 0
KGU1 240648Z 31006KT 18/M06 A3006 RMK A01 T01791055  RH  020%=      5-min Rain = 0
KGU1 240649Z 30008KT 18/M06 A3006 RMK A01 T01781055  RH  020%=      5-min Rain = 0
KGU1 240650Z 30009KT 18/M06 A3006 RMK A01 T01781056  RH  020%=      5-min Rain = 0
KGU1 240651Z 30008KT 18/M06 A3005 RMK A01 T01801056  RH  020%=      5-min Rain = 0
KGU1 240652Z 30010KT 18/M06 A3005 RMK A01 T01821056  RH  019%=      5-min Rain = 0
KGU1 240653Z 30010KT 18/M06 A3005 RMK A01 T01821056  RH  019%=      5-min Rain = 0
KGU1 240654Z 30009KT 18/M06 A3005 RMK A01 T01821056  RH  019%=      5-min Rain = 0
KGU1 240655Z 30009KT 18/M06 A3005 RMK A01 T01821055  RH  019%=      5-min Rain = 0
KGU1 240656Z 30010KT 18/M06 A3005 RMK A01 T01811055  RH  020%=      5-min Rain = 0
KGU1 240657Z 31010KT 18/M06 A3005 RMK A01 T01791055  RH  020%=      5-min Rain = 0
KGU1 240658Z 31008KT 18/M06 A3005 RMK A01 T01781055  RH  020%=      5-min Rain = 0
KGU1 240659Z 31008KT 18/M06 A3005 RMK A01 T01771055  RH  020%=      5-min Rain = 0
KGU1 240700Z 31009KT 18/M06 A3005 RMK A01 T01751055  RH  020%=      5-min Rain = 0
KGU1 240701Z 30008KT 18/M06 A3005 RMK A01 T01751055  RH  020%=      5-min Rain = 0
KGU1 240702Z 31007KT 18/M06 A3005 RMK A01 T01751056  RH  020%=      5-min Rain = 0
KGU1 240703Z 31008KT 18/M06 A3005 RMK A01 T01761056  RH  020%=      5-min Rain = 0
KGU1 240704Z 31008KT 18/M06 A3005 RMK A01 T01761056  RH  020%=      5-min Rain = 0
KGU1 240705Z 31008KT 18/M06 A3005 RMK A01 T01761056  RH  020%=      5-min Rain = 0
KGU1 240706Z 32008KT 18/M06 A3005 RMK A01 T01751056  RH  020%=      5-min Rain = 0
KGU1 240707Z 31009KT 18/M06 A3005 RMK A01 T01751056  RH  020%=      5-min Rain = 0
KGU1 240708Z 31010KT 18/M06 A3005 RMK A01 T01761056  RH  020%=      5-min Rain = 0
KGU1 240709Z 30010KT 18/M06 A3005 RMK A01 T01771056  RH  020%=      5-min Rain = 0
KGU1 240710Z 30011KT 18/M06 A3005 RMK A01 T01791056  RH  020%=      5-min Rain = 0
KGU1 240711Z 30012KT 18/M06 A3005 RMK A01 T01811056  RH  020%=      5-min Rain = 0
KGU1 240712Z 30013KT 18/M06 A3005 RMK A01 T01811055  RH  020%=      5-min Rain = 0
KGU1 240713Z 30012KT 18/M06 A3005 RMK A01 T01821055  RH  020%=      5-min Rain = 0
KGU1 240714Z 30010KT 18/M06 A3005 RMK A01 T01821055  RH  020%=      5-min Rain = 0
KGU1 240715Z 29009KT 18/M06 A3005 RMK A01 T01821056  RH  019%=      5-min Rain = 0
KGU1 240716Z 30010KT 18/M06 A3005 RMK A01 T01821057  RH  019%=      5-min Rain = 0
KGU1 240717Z 30011KT 18/M06 A3005 RMK A01 T01821057  RH  019%=      5-min Rain = 0
KGU1 240718Z 30012KT 18/M06 A3005 RMK A01 T01831057  RH  019%=      5-min Rain = 0
KGU1 240719Z 30011KT 18/M06 A3005 RMK A01 T01831057  RH  019%=      5-min Rain = 0
KGU1 240720Z 30010KT 18/M06 A3005 RMK A01 T01831056  RH  019%=      5-min Rain = 0
KGU1 240721Z 30010KT 18/M06 A3005 RMK A01 T01841056  RH  019%=      5-min Rain = 0
KGU1 240722Z 30009KT 18/M06 A3005 RMK A01 T01841056  RH  019%=      5-min Rain = 0
KGU1 240723Z 30008KT 18/M06 A3005 RMK A01 T01831056  RH  019%=      5-min Rain = 0
KGU1 240724Z 31008KT 18/M06 A3005 RMK A01 T01821056  RH  019%=      5-min Rain = 0
KGU1 240725Z 30007KT 18/M06 A3005 RMK A01 T01801057  RH  019%=      5-min Rain = 0
KGU1 240726Z 30008KT 18/M06 A3005 RMK A01 T01791057  RH  019%=      5-min Rain = 0
KGU1 240727Z 30009KT 18/M06 A3005 RMK A01 T01781058  RH  020%=      5-min Rain = 0
KGU1 240728Z 29010KT 18/M06 A3005 RMK A01 T01781058  RH  019%=      5-min Rain = 0
KGU1 240729Z 30008KT 18/M06 A3005 RMK A01 T01801058  RH  019%=      5-min Rain = 0
KGU1 240730Z 32006KT 18/M06 A3005 RMK A01 T01811058  RH  019%=      5-min Rain = 0
KGU1 240731Z 33007KT 18/M06 A3005 RMK A01 T01811058  RH  019%=      5-min Rain = 0
KGU1 240732Z 32005KT 18/M06 A3005 RMK A01 T01821057  RH  019%=      5-min Rain = 0
KGU1 240733Z 32004KT 18/M06 A3005 RMK A01 T01831056  RH  019%=      5-min Rain = 0
KGU1 240734Z 32004KT 18/M06 A3005 RMK A01 T01811057  RH  019%=      5-min Rain = 0
KGU1 240735Z 30006G11KT 18/M06 A3005 RMK A01 T01811057  RH  019%=      5-min Rain = 0
KGU1 240736Z 30009KT 18/M06 A3005 RMK A01 T01801057  RH  019%=      5-min Rain = 0
KGU1 240737Z 29010KT 18/M06 A3005 RMK A01 T01821057  RH  019%=      5-min Rain = 0
KGU1 240738Z 29010KT 18/M06 A3005 RMK A01 T01811057  RH  019%=      5-min Rain = 0
KGU1 240739Z 29010KT 18/M06 A3005 RMK A01 T01811057  RH  019%=      5-min Rain = 0
KGU1 240740Z 29009KT 18/M06 A3005 RMK A01 T01811057  RH  019%=      5-min Rain = 0
KGU1 240741Z 29008KT 18/M06 A3005 RMK A01 T01811057  RH  019%=      5-min Rain = 0
KGU1 240742Z 28008KT 18/M06 A3005 RMK A01 T01801057  RH  019%=      5-min Rain = 0
KGU1 240743Z 29010KT 18/M06 A3005 RMK A01 T01791057  RH  020%=      5-min Rain = 0
KGU1 240744Z 29009KT 18/M06 A3005 RMK A01 T01791056  RH  020%=      5-min Rain = 0
KGU1 240745Z 29008KT 18/M06 A3005 RMK A01 T01781057  RH  020%=      5-min Rain = 0
KGU1 240746Z 29010KT 18/M06 A3005 RMK A01 T01781057  RH  020%=      5-min Rain = 0
KGU1 240747Z 29011KT 18/M06 A3005 RMK A01 T01781057  RH  020%=      5-min Rain = 0
KGU1 240748Z 30010KT 18/M06 A3005 RMK A01 T01781057  RH  020%=      5-min Rain = 0
KGU1 240749Z 30010KT 18/M06 A3005 RMK A01 T01781057  RH  020%=      5-min Rain = 0
KGU1 240750Z 30010KT 18/M06 A3005 RMK A01 T01781057  RH  020%=      5-min Rain = 0
KGU1 240751Z 30010KT 18/M06 A3005 RMK A01 T01781057  RH  020%=      5-min Rain = 0
KGU1 240752Z 30011KT 18/M06 A3005 RMK A01 T01781057  RH  020%=      5-min Rain = 0
KGU1 240753Z 30010KT 18/M06 A3005 RMK A01 T01791056  RH  020%=      5-min Rain = 0
KGU1 240754Z 30009KT 18/M06 A3005 RMK A01 T01781056  RH  020%=      5-min Rain = 0
KGU1 240755Z 30007KT 18/M06 A3005 RMK A01 T01781056  RH  020%=      5-min Rain = 0
KGU1 240756Z 29006KT 18/M06 A3005 RMK A01 T01781056  RH  020%=      5-min Rain = 0
KGU1 240757Z 29007KT 18/M06 A3005 RMK A01 T01761056  RH  020%=      5-min Rain = 0
KGU1 240758Z 30009KT 18/M06 A3005 RMK A01 T01751056  RH  020%=      5-min Rain = 0
KGU1 240759Z 30010KT 18/M06 A3005 RMK A01 T01751056  RH  020%=      5-min Rain = 0
KGU1 240800Z 30010KT 18/M06 A3005 RMK A01 T01751056  RH  020%=      5-min Rain = 0
KGU1 240801Z 29010KT 18/M06 A3005 RMK A01 T01771056  RH  020%=      5-min Rain = 0
KGU1 240802Z 29010KT 18/M06 A3005 RMK A01 T01771056  RH  020%=      5-min Rain = 0
KGU1 240803Z 30006G11KT 18/M06 A3006 RMK A01 T01771056  RH  020%=      5-min Rain = 0
KGU1 240804Z 30010KT 18/M06 A3006 RMK A01 T01771056  RH  020%=      5-min Rain = 0
KGU1 240805Z 30010KT 18/M06 A3006 RMK A01 T01791056  RH  020%=      5-min Rain = 0
KGU1 240806Z 30011KT 18/M06 A3006 RMK A01 T01801057  RH  020%=      5-min Rain = 0
KGU1 240807Z 30010KT 18/M06 A3006 RMK A01 T01801056  RH  020%=      5-min Rain = 0
KGU1 240808Z 30007KT 18/M06 A3006 RMK A01 T01801056  RH  020%=      5-min Rain = 0
KGU1 240809Z 30006KT 18/M06 A3006 RMK A01 T01801056  RH  020%=      5-min Rain = 0
KGU1 240810Z 31004KT 18/M06 A3005 RMK A01 T01791055  RH  020%=      5-min Rain = 0
KGU1 240811Z 30002KT 18/M06 A3005 RMK A01 T01781055  RH  020%=      5-min Rain = 0
KGU1 240812Z 29002KT 18/M06 A3005 RMK A01 T01771055  RH  020%=      5-min Rain = 0
KGU1 240813Z 29003G9KT 18/M06 A3005 RMK A01 T01761055  RH  020%=      5-min Rain = 0
KGU1 240814Z 29010KT 18/M06 A3005 RMK A01 T01751056  RH  020%=      5-min Rain = 0
KGU1 240815Z 29012KT 18/M06 A3005 RMK A01 T01771056  RH  020%=      5-min Rain = 0
KGU1 240816Z 29011KT 18/M06 A3005 RMK A01 T01781057  RH  020%=      5-min Rain = 0
KGU1 240817Z 29010KT 18/M06 A3005 RMK A01 T01781056  RH  020%=      5-min Rain = 0
KGU1 240818Z 30011KT 18/M06 A3005 RMK A01 T01761057  RH  020%=      5-min Rain = 0
KGU1 240819Z 31013KT 18/M06 A3005 RMK A01 T01771057  RH  020%=      5-min Rain = 0
KGU1 240820Z 30010KT 18/M06 A3005 RMK A01 T01791057  RH  020%=      5-min Rain = 0
KGU1 240821Z 31009KT 18/M06 A3005 RMK A01 T01791057  RH  020%=      5-min Rain = 0
KGU1 240822Z 30008G15KT 18/M06 A3005 RMK A01 T01771057  RH  020%=      5-min Rain = 0
KGU1 240823Z 29013G18KT 18/M06 A3005 RMK A01 T01761058  RH  020%=      5-min Rain = 0
KGU1 240824Z 29013KT 18/M06 A3005 RMK A01 T01791059  RH  019%=      5-min Rain = 0
KGU1 240825Z 29012KT 18/M06 A3005 RMK A01 T01801059  RH  019%=      5-min Rain = 0
KGU1 240826Z 30011KT 18/M06 A3005 RMK A01 T01801058  RH  019%=      5-min Rain = 0
KGU1 240827Z 30011KT 18/M06 A3005 RMK A01 T01801058  RH  019%=      5-min Rain = 0
KGU1 240828Z 30013KT 18/M06 A3005 RMK A01 T01781058  RH  020%=      5-min Rain = 0
KGU1 240829Z 29013KT 18/M06 A3005 RMK A01 T01771057  RH  020%=      5-min Rain = 0
KGU1 240830Z 30010KT 18/M06 A3005 RMK A01 T01771058  RH  020%=      5-min Rain = 0
KGU1 240831Z 29011KT 18/M06 A3005 RMK A01 T01761058  RH  020%=      5-min Rain = 0
KGU1 240832Z 30012KT 18/M06 A3005 RMK A01 T01751059  RH  020%=      5-min Rain = 0
KGU1 240833Z 29012KT 18/M06 A3005 RMK A01 T01751060  RH  020%=      5-min Rain = 0
KGU1 240834Z 30012KT 18/M06 A3005 RMK A01 T01751060  RH  020%=      5-min Rain = 0
KGU1 240835Z 29013KT 17/M06 A3005 RMK A01 T01741060  RH  020%=      5-min Rain = 0
KGU1 240836Z 30011KT 17/M06 A3005 RMK A01 T01741061  RH  020%=      5-min Rain = 0
KGU1 240837Z 30010KT 17/M06 A3005 RMK A01 T01741061  RH  020%=      5-min Rain = 0
KGU1 240838Z 30012KT 17/M06 A3005 RMK A01 T01741060  RH  020%=      5-min Rain = 0
KGU1 240839Z 30012KT 17/M06 A3005 RMK A01 T01741061  RH  020%=      5-min Rain = 0
KGU1 240840Z 29011KT 17/M06 A3005 RMK A01 T01741061  RH  020%=      5-min Rain = 0
KGU1 240841Z 29010KT 17/M06 A3005 RMK A01 T01741061  RH  020%=      5-min Rain = 0
KGU1 240842Z 30014KT 17/M06 A3005 RMK A01 T01741061  RH  020%=      5-min Rain = 0
KGU1 240843Z 30013KT 17/M06 A3005 RMK A01 T01741061  RH  019%=      5-min Rain = 0
KGU1 240844Z 30012KT 17/M06 A3005 RMK A01 T01741061  RH  019%=      5-min Rain = 0
KGU1 240845Z 29013KT 17/M06 A3005 RMK A01 T01741061  RH  020%=      5-min Rain = 0
KGU1 240846Z 29012KT 17/M06 A3005 RMK A01 T01731061  RH  020%=      5-min Rain = 0
KGU1 240847Z 29011KT 17/M06 A3005 RMK A01 T01731061  RH  020%=      5-min Rain = 0
KGU1 240848Z 30010KT 17/M06 A3005 RMK A01 T01721061  RH  020%=      5-min Rain = 0
KGU1 240849Z 29009KT 17/M06 A3005 RMK A01 T01711061  RH  020%=      5-min Rain = 0
KGU1 240850Z 30013KT 17/M06 A3005 RMK A01 T01701061  RH  020%=      5-min Rain = 0
KGU1 240851Z 29012KT 17/M06 A3005 RMK A01 T01711061  RH  020%=      5-min Rain = 0
KGU1 240852Z 30012KT 17/M06 A3005 RMK A01 T01731061  RH  020%=      5-min Rain = 0
KGU1 240853Z 30012KT 17/M06 A3005 RMK A01 T01731061  RH  020%=      5-min Rain = 0
KGU1 240854Z 30013KT 17/M06 A3005 RMK A01 T01731061  RH  020%=      5-min Rain = 0
KGU1 240855Z 30013KT 17/M06 A3005 RMK A01 T01741060  RH  020%=      5-min Rain = 0
KGU1 240856Z 30012KT 17/M06 A3005 RMK A01 T01741060  RH  020%=      5-min Rain = 0
KGU1 240857Z 30014KT 17/M06 A3005 RMK A01 T01741061  RH  020%=      5-min Rain = 0
KGU1 240858Z 30013KT 17/M06 A3005 RMK A01 T01741060  RH  020%=      5-min Rain = 0
KGU1 240859Z 30012KT 17/M06 A3005 RMK A01 T01741060  RH  020%=      5-min Rain = 0
KGU1 240900Z 30012KT 17/M06 A3005 RMK A01 T01731060  RH  020%=      5-min Rain = 0
KGU1 240901Z 30011KT 17/M06 A3004 RMK A01 T01731059  RH  020%=      5-min Rain = 0
KGU1 240902Z 30013KT 17/M06 A3004 RMK A01 T01721060  RH  020%=      5-min Rain = 0
KGU1 240903Z 30013KT 17/M06 A3004 RMK A01 T01731060  RH  020%=      5-min Rain = 0
KGU1 240904Z 30012KT 18/M06 A3004 RMK A01 T01751061  RH  020%=      5-min Rain = 0
KGU1 240905Z 30013KT 18/M06 A3004 RMK A01 T01751061  RH  020%=      5-min Rain = 0
KGU1 240906Z 30013KT 18/M06 A3004 RMK A01 T01751061  RH  019%=      5-min Rain = 0
KGU1 240907Z 30011KT 18/M06 A3005 RMK A01 T01761061  RH  019%=      5-min Rain = 0
KGU1 240908Z 29012KT 18/M06 A3005 RMK A01 T01771061  RH  019%=      5-min Rain = 0
KGU1 240909Z 29012KT 18/M06 A3005 RMK A01 T01781062  RH  019%=      5-min Rain = 0
KGU1 240910Z 29012KT 18/M06 A3005 RMK A01 T01791061  RH  019%=      5-min Rain = 0
KGU1 240911Z 29013KT 18/M06 A3005 RMK A01 T01791061  RH  019%=      5-min Rain = 0
KGU1 240912Z 29012KT 18/M06 A3005 RMK A01 T01801062  RH  019%=      5-min Rain = 0
KGU1 240913Z 29012KT 18/M06 A3005 RMK A01 T01801062  RH  019%=      5-min Rain = 0
KGU1 240914Z 29012KT 18/M06 A3005 RMK A01 T01791062  RH  019%=      5-min Rain = 0
KGU1 240915Z 29013KT 18/M06 A3005 RMK A01 T01791062  RH  019%=      5-min Rain = 0
KGU1 240916Z 30011KT 18/M06 A3005 RMK A01 T01811062  RH  019%=      5-min Rain = 0
KGU1 240917Z 30011KT 18/M06 A3005 RMK A01 T01811062  RH  019%=      5-min Rain = 0
KGU1 240918Z 30010KT 18/M06 A3004 RMK A01 T01801062  RH  019%=      5-min Rain = 0
KGU1 240919Z 30011KT 18/M06 A3004 RMK A01 T01801062  RH  019%=      5-min Rain = 0
KGU1 240920Z 30011KT 18/M06 A3005 RMK A01 T01791061  RH  019%=      5-min Rain = 0
KGU1 240921Z 30011KT 18/M06 A3005 RMK A01 T01791061  RH  019%=      5-min Rain = 0
KGU1 240922Z 30012KT 18/M06 A3005 RMK A01 T01801062  RH  019%=      5-min Rain = 0
KGU1 240923Z 30011KT 18/M06 A3005 RMK A01 T01811061  RH  019%=      5-min Rain = 0
KGU1 240924Z 30011KT 18/M06 A3004 RMK A01 T01821062  RH  018%=      5-min Rain = 0
KGU1 240925Z 30013KT 18/M06 A3005 RMK A01 T01831062  RH  018%=      5-min Rain = 0
KGU1 240926Z 30012KT 19/M06 A3005 RMK A01 T01851062  RH  018%=      5-min Rain = 0
KGU1 240927Z 30011KT 19/M06 A3005 RMK A01 T01851062  RH  018%=      5-min Rain = 0
KGU1 240928Z 30012KT 18/M06 A3005 RMK A01 T01841062  RH  018%=      5-min Rain = 0
KGU1 240929Z 30012KT 18/M06 A3005 RMK A01 T01821062  RH  018%=      5-min Rain = 0
KGU1 240930Z 30012KT 18/M06 A3005 RMK A01 T01821062  RH  019%=      5-min Rain = 0
KGU1 240931Z 30013KT 18/M06 A3005 RMK A01 T01811062  RH  019%=      5-min Rain = 0
KGU1 240932Z 30011KT 18/M06 A3005 RMK A01 T01811062  RH  019%=      5-min Rain = 0
KGU1 240933Z 30011KT 18/M06 A3005 RMK A01 T01811062  RH  019%=      5-min Rain = 0
KGU1 240934Z 30011KT 18/M06 A3005 RMK A01 T01821061  RH  019%=      5-min Rain = 0
KGU1 240935Z 30011KT 18/M06 A3005 RMK A01 T01811061  RH  019%=      5-min Rain = 0
KGU1 240936Z 30012KT 18/M06 A3005 RMK A01 T01801061  RH  019%=      5-min Rain = 0
KGU1 240937Z 30012KT 18/M06 A3005 RMK A01 T01791061  RH  019%=      5-min Rain = 0
KGU1 240938Z 30011KT 18/M06 A3005 RMK A01 T01781061  RH  019%=      5-min Rain = 0
KGU1 240939Z 30011KT 18/M06 A3005 RMK A01 T01781060  RH  019%=      5-min Rain = 0
KGU1 240940Z 30012KT 18/M06 A3005 RMK A01 T01801059  RH  019%=      5-min Rain = 0
KGU1 240941Z 30013KT 18/M06 A3005 RMK A01 T01811058  RH  019%=      5-min Rain = 0
KGU1 240942Z 30013KT 18/M06 A3005 RMK A01 T01821058  RH  019%=      5-min Rain = 0
KGU1 240943Z 30012KT 18/M06 A3005 RMK A01 T01831058  RH  019%=      5-min Rain = 0
KGU1 240944Z 30012KT 18/M06 A3005 RMK A01 T01821058  RH  019%=      5-min Rain = 0
KGU1 240945Z 30012KT 18/M06 A3005 RMK A01 T01811057  RH  019%=      5-min Rain = 0
KGU1 240946Z 30013KT 18/M06 A3005 RMK A01 T01811056  RH  019%=      5-min Rain = 0
KGU1 240947Z 29013KT 18/M06 A3005 RMK A01 T01811055  RH  020%=      5-min Rain = 0
KGU1 240948Z 30011KT 18/M06 A3005 RMK A01 T01811055  RH  020%=      5-min Rain = 0
KGU1 240949Z 30012KT 18/M06 A3005 RMK A01 T01801055  RH  020%=      5-min Rain = 0
KGU1 240950Z 31012KT 18/M05 A3005 RMK A01 T01811054  RH  020%=      5-min Rain = 0
KGU1 240951Z 30014KT 18/M05 A3005 RMK A01 T01811053  RH  020%=      5-min Rain = 0
KGU1 240952Z 30014KT 18/M05 A3005 RMK A01 T01811053  RH  020%=      5-min Rain = 0
KGU1 240953Z 29011KT 18/M05 A3005 RMK A01 T01821053  RH  020%=      5-min Rain = 0
KGU1 240954Z 29009KT 18/M05 A3005 RMK A01 T01811053  RH  020%=      5-min Rain = 0
KGU1 240955Z 30010KT 18/M05 A3005 RMK A01 T01791053  RH  020%=      5-min Rain = 0
KGU1 240956Z 30012KT 18/M05 A3005 RMK A01 T01791053  RH  020%=      5-min Rain = 0
KGU1 240957Z 30015KT 18/M05 A3005 RMK A01 T01811052  RH  020%=      5-min Rain = 0
KGU1 240958Z 31012KT 18/M05 A3005 RMK A01 T01831052  RH  020%=      5-min Rain = 0
KGU1 240959Z 30014KT 18/M05 A3005 RMK A01 T01841052  RH  020%=      5-min Rain = 0
KGU1 241000Z 30012KT 19/M05 A3005 RMK A01 T01851053  RH  020%=      5-min Rain = 0
KGU1 241001Z 30010KT 19/M05 A3005 RMK A01 T01851053  RH  020%=      5-min Rain = 0
KGU1 241002Z 30010KT 18/M05 A3005 RMK A01 T01841053  RH  020%=      5-min Rain = 0
KGU1 241003Z 30012G18KT 18/M05 A3005 RMK A01 T01841053  RH  020%=      5-min Rain = 0
KGU1 241004Z 30015KT 18/M05 A3005 RMK A01 T01841053  RH  020%=      5-min Rain = 0
KGU1 241005Z 30015KT 19/M05 A3005 RMK A01 T01861053  RH  019%=      5-min Rain = 0
KGU1 241006Z 30012KT 19/M05 A3005 RMK A01 T01871052  RH  019%=      5-min Rain = 0
KGU1 241007Z 31010KT 19/M05 A3005 RMK A01 T01881052  RH  019%=      5-min Rain = 0
KGU1 241008Z 30012KT 19/M05 A3005 RMK A01 T01871052  RH  019%=      5-min Rain = 0
KGU1 241009Z 29015KT 19/M05 A3005 RMK A01 T01861052  RH  019%=      5-min Rain = 0
KGU1 241010Z 30013KT 19/M05 A3005 RMK A01 T01851053  RH  019%=      5-min Rain = 0
KGU1 241011Z 31012KT 19/M05 A3005 RMK A01 T01851053  RH  019%=      5-min Rain = 0
KGU1 241012Z 31012KT 19/M05 A3005 RMK A01 T01861053  RH  019%=      5-min Rain = 0
KGU1 241013Z 30013KT 19/M05 A3005 RMK A01 T01861053  RH  019%=      5-min Rain = 0
KGU1 241014Z 30013KT 19/M05 A3005 RMK A01 T01861053  RH  019%=      5-min Rain = 0
KGU1 241015Z 30013KT 19/M05 A3005 RMK A01 T01861053  RH  019%=      5-min Rain = 0
KGU1 241016Z 30011G17KT 19/M05 A3005 RMK A01 T01871053  RH  019%=      5-min Rain = 0
KGU1 241017Z 30013KT 19/M05 A3005 RMK A01 T01861053  RH  019%=      5-min Rain = 0
KGU1 241018Z 31012KT 19/M05 A3005 RMK A01 T01861053  RH  019%=      5-min Rain = 0
KGU1 241019Z 31012KT 19/M05 A3005 RMK A01 T01861054  RH  019%=      5-min Rain = 0
KGU1 241020Z 31012KT 19/M05 A3005 RMK A01 T01861054  RH  019%=      5-min Rain = 0
KGU1 241021Z 30013KT 19/M05 A3005 RMK A01 T01861054  RH  019%=      5-min Rain = 0
KGU1 241022Z 30014KT 19/M05 A3005 RMK A01 T01861054  RH  019%=      5-min Rain = 0
KGU1 241023Z 30013KT 19/M05 A3005 RMK A01 T01851054  RH  019%=      5-min Rain = 0
KGU1 241024Z 30014KT 19/M05 A3005 RMK A01 T01861054  RH  019%=      5-min Rain = 0
KGU1 241025Z 30012KT 19/M05 A3005 RMK A01 T01871054  RH  019%=      5-min Rain = 0
KGU1 241026Z 30012KT 19/M05 A3005 RMK A01 T01851054  RH  019%=      5-min Rain = 0
KGU1 241027Z 30014KT 18/M05 A3005 RMK A01 T01841054  RH  019%=      5-min Rain = 0
KGU1 241028Z 30014KT 19/M05 A3005 RMK A01 T01851054  RH  019%=      5-min Rain = 0
KGU1 241029Z 29013KT 19/M06 A3005 RMK A01 T01861055  RH  019%=      5-min Rain = 0
KGU1 241030Z 30012KT 19/M06 A3005 RMK A01 T01851055  RH  019%=      5-min Rain = 0
KGU1 241031Z 30015KT 18/M06 A3005 RMK A01 T01841055  RH  019%=      5-min Rain = 0
KGU1 241032Z 30015KT 18/M05 A3005 RMK A01 T01841054  RH  019%=      5-min Rain = 0
KGU1 241033Z 30013KT 19/M05 A3005 RMK A01 T01861053  RH  019%=      5-min Rain = 0
KGU1 241034Z 30013KT 19/M06 A3005 RMK A01 T01861055  RH  019%=      5-min Rain = 0
KGU1 241035Z 30013KT 19/M06 A3005 RMK A01 T01861055  RH  019%=      5-min Rain = 0
KGU1 241036Z 30014KT 19/M06 A3005 RMK A01 T01851055  RH  019%=      5-min Rain = 0
KGU1 241037Z 29014KT 18/M06 A3005 RMK A01 T01841055  RH  019%=      5-min Rain = 0
KGU1 241038Z 29014KT 18/M06 A3005 RMK A01 T01821055  RH  019%=      5-min Rain = 0
KGU1 241039Z 30013KT 18/M06 A3005 RMK A01 T01801055  RH  020%=      5-min Rain = 0
KGU1 241040Z 30013KT 18/M05 A3005 RMK A01 T01811054  RH  020%=      5-min Rain = 0
KGU1 241041Z 29012KT 18/M05 A3005 RMK A01 T01811054  RH  020%=      5-min Rain = 0
KGU1 241042Z 30013KT 18/M05 A3005 RMK A01 T01791054  RH  020%=      5-min Rain = 0
KGU1 241043Z 29014KT 18/M05 A3005 RMK A01 T01791053  RH  020%=      5-min Rain = 0
KGU1 241044Z 30014KT 18/M05 A3005 RMK A01 T01791054  RH  020%=      5-min Rain = 0
KGU1 241045Z 29013KT 18/M05 A3006 RMK A01 T01791054  RH  020%=      5-min Rain = 0
KGU1 241046Z 30012KT 18/M05 A3006 RMK A01 T01791054  RH  020%=      5-min Rain = 0
KGU1 241047Z 30014KT 18/M05 A3006 RMK A01 T01781053  RH  020%=      5-min Rain = 0
KGU1 241048Z 30013KT 18/M05 A3006 RMK A01 T01781053  RH  020%=      5-min Rain = 0
KGU1 241049Z 30012KT 18/M05 A3006 RMK A01 T01791052  RH  020%=      5-min Rain = 0
KGU1 241050Z 30013KT 18/M05 A3006 RMK A01 T01771052  RH  020%=      5-min Rain = 0
KGU1 241051Z 30012KT 18/M05 A3005 RMK A01 T01771052  RH  021%=      5-min Rain = 0
KGU1 241052Z 30013KT 18/M05 A3005 RMK A01 T01771052  RH  021%=      5-min Rain = 0
KGU1 241053Z 29013KT 18/M05 A3005 RMK A01 T01781051  RH  021%=      5-min Rain = 0
KGU1 241054Z 30012KT 18/M05 A3005 RMK A01 T01791051  RH  020%=      5-min Rain = 0
KGU1 241055Z 30013KT 18/M05 A3005 RMK A01 T01781051  RH  021%=      5-min Rain = 0
KGU1 241056Z 31012KT 18/M05 A3005 RMK A01 T01781051  RH  021%=      5-min Rain = 0
KGU1 241057Z 30012KT 18/M05 A3005 RMK A01 T01781051  RH  021%=      5-min Rain = 0
KGU1 241058Z 30013KT 18/M05 A3005 RMK A01 T01781051  RH  021%=      5-min Rain = 0
KGU1 241059Z 30011KT 18/M05 A3005 RMK A01 T01781050  RH  021%=      5-min Rain = 0
KGU1 241100Z 31010KT 18/M05 A3005 RMK A01 T01781050  RH  021%=      5-min Rain = 0
KGU1 241101Z 30016KT 18/M05 A3005 RMK A01 T01781049  RH  021%=      5-min Rain = 0
KGU1 241102Z 29013KT 18/M05 A3005 RMK A01 T01811048  RH  021%=      5-min Rain = 0
KGU1 241103Z 30010KT 18/M05 A3005 RMK A01 T01821049  RH  020%=      5-min Rain = 0
KGU1 241104Z 30012KT 18/M05 A3005 RMK A01 T01811048  RH  021%=      5-min Rain = 0
KGU1 241105Z 30011KT 18/M05 A3005 RMK A01 T01821047  RH  021%=      5-min Rain = 0
KGU1 241106Z 30011KT 18/M05 A3005 RMK A01 T01811047  RH  021%=      5-min Rain = 0
KGU1 241107Z 30013KT 18/M05 A3005 RMK A01 T01821047  RH  021%=      5-min Rain = 0
KGU1 241108Z 31012KT 18/M05 A3005 RMK A01 T01831046  RH  021%=      5-min Rain = 0
KGU1 241109Z 30014KT 18/M05 A3005 RMK A01 T01841046  RH  021%=      5-min Rain = 0
KGU1 241110Z 30014KT 18/M05 A3005 RMK A01 T01841047  RH  020%=      5-min Rain = 0
KGU1 241111Z 30012KT 19/M05 A3005 RMK A01 T01851047  RH  020%=      5-min Rain = 0
KGU1 241112Z 30012KT 18/M05 A3005 RMK A01 T01841047  RH  021%=      5-min Rain = 0
KGU1 241113Z 30012KT 18/M05 A3005 RMK A01 T01841047  RH  020%=      5-min Rain = 0
KGU1 241114Z 30014KT 18/M05 A3005 RMK A01 T01841047  RH  021%=      5-min Rain = 0
KGU1 241115Z 30013KT 18/M05 A3005 RMK A01 T01831047  RH  020%=      5-min Rain = 0
KGU1 241116Z 30012KT 19/M05 A3005 RMK A01 T01851047  RH  020%=      5-min Rain = 0
KGU1 241117Z 31012KT 19/M05 A3005 RMK A01 T01851047  RH  020%=      5-min Rain = 0
KGU1 241118Z 30013KT 19/M05 A3005 RMK A01 T01851047  RH  020%=      5-min Rain = 0
KGU1 241119Z 30014KT 19/M05 A3005 RMK A01 T01861047  RH  020%=      5-min Rain = 0
KGU1 241120Z 30013KT 19/M05 A3006 RMK A01 T01871047  RH  020%=      5-min Rain = 0
KGU1 241121Z 30011KT 19/M05 A3006 RMK A01 T01871048  RH  020%=      5-min Rain = 0
KGU1 241122Z 29010KT 19/M05 A3006 RMK A01 T01861047  RH  020%=      5-min Rain = 0
KGU1 241123Z 30011KT 19/M05 A3006 RMK A01 T01851047  RH  020%=      5-min Rain = 0
KGU1 241124Z 30012KT 19/M05 A3006 RMK A01 T01861047  RH  020%=      5-min Rain = 0
KGU1 241125Z 30012KT 19/M05 A3006 RMK A01 T01861048  RH  020%=      5-min Rain = 0
KGU1 241126Z 30010KT 19/M05 A3006 RMK A01 T01871048  RH  020%=      5-min Rain = 0
KGU1 241127Z 30014KT 19/M05 A3006 RMK A01 T01861048  RH  020%=      5-min Rain = 0
KGU1 241128Z 30011KT 19/M05 A3006 RMK A01 T01881048  RH  020%=      5-min Rain = 0
KGU1 241129Z 30014KT 19/M05 A3006 RMK A01 T01881048  RH  020%=      5-min Rain = 0
KGU1 241130Z 29014KT 19/M05 A3006 RMK A01 T01871048  RH  020%=      5-min Rain = 0
KGU1 241131Z 29011KT 19/M05 A3006 RMK A01 T01861049  RH  020%=      5-min Rain = 0
KGU1 241132Z 30008KT 19/M05 A3006 RMK A01 T01851049  RH  020%=      5-min Rain = 0
KGU1 241133Z 30011KT 19/M05 A3006 RMK A01 T01851048  RH  020%=      5-min Rain = 0
KGU1 241134Z 30014KT 18/M05 A3006 RMK A01 T01831049  RH  020%=      5-min Rain = 0
KGU1 241135Z 30012KT 18/M05 A3006 RMK A01 T01831049  RH  020%=      5-min Rain = 0
KGU1 241136Z 30011KT 18/M05 A3006 RMK A01 T01811049  RH  020%=      5-min Rain = 0
KGU1 241137Z 30014KT 18/M05 A3006 RMK A01 T01811048  RH  021%=      5-min Rain = 0
KGU1 241138Z 30011KT 18/M05 A3006 RMK A01 T01831049  RH  020%=      5-min Rain = 0
KGU1 241139Z 30012KT 18/M05 A3006 RMK A01 T01841048  RH  020%=      5-min Rain = 0
KGU1 241140Z 30012KT 18/M05 A3006 RMK A01 T01831049  RH  020%=      5-min Rain = 0
KGU1 241141Z 30013KT 18/M05 A3006 RMK A01 T01811050  RH  020%=      5-min Rain = 0
KGU1 241142Z 29014KT 18/M05 A3006 RMK A01 T01801050  RH  020%=      5-min Rain = 0
KGU1 241143Z 30012KT 18/M05 A3006 RMK A01 T01801050  RH  020%=      5-min Rain = 0
KGU1 241144Z 29013KT 18/M05 A3006 RMK A01 T01801049  RH  021%=      5-min Rain = 0
KGU1 241145Z 29012KT 18/M05 A3006 RMK A01 T01801050  RH  020%=      5-min Rain = 0
KGU1 241146Z 30013KT 18/M05 A3006 RMK A01 T01801050  RH  021%=      5-min Rain = 0
KGU1 241147Z 30015KT 18/M05 A3006 RMK A01 T01801050  RH  021%=      5-min Rain = 0
KGU1 241148Z 30013KT 18/M05 A3006 RMK A01 T01801049  RH  021%=      5-min Rain = 0
KGU1 241149Z 30014KT 18/M05 A3006 RMK A01 T01811048  RH  021%=      5-min Rain = 0
KGU1 241150Z 31011KT 18/M05 A3006 RMK A01 T01831046  RH  021%=      5-min Rain = 0
KGU1 241151Z 30013KT 19/M05 A3006 RMK A01 T01851047  RH  020%=      5-min Rain = 0
KGU1 241152Z 30015KT 18/M05 A3006 RMK A01 T01841048  RH  020%=      5-min Rain = 0
KGU1 241153Z 29014KT 18/M05 A3006 RMK A01 T01831048  RH  021%=      5-min Rain = 0
KGU1 241154Z 29012KT 18/M05 A3006 RMK A01 T01841047  RH  021%=      5-min Rain = 0
KGU1 241155Z 29011KT 18/M05 A3006 RMK A01 T01841047  RH  021%=      5-min Rain = 0
KGU1 241156Z 30013KT 18/M05 A3006 RMK A01 T01841046  RH  021%=      5-min Rain = 0
KGU1 241157Z 29014KT 18/M05 A3006 RMK A01 T01831046  RH  021%=      5-min Rain = 0
KGU1 241158Z 30013KT 18/M05 A3006 RMK A01 T01841046  RH  021%=      5-min Rain = 0
KGU1 241159Z 29012KT 18/M05 A3006 RMK A01 T01821046  RH  021%=      5-min Rain = 0
KGU1 241200Z 30011KT 18/M05 A3006 RMK A01 T01801046  RH  021%=      5-min Rain = 0
KGU1 241201Z 30014KT 18/M05 A3006 RMK A01 T01801046  RH  021%=      5-min Rain = 0
KGU1 241202Z 30013KT 18/M05 A3006 RMK A01 T01801046  RH  021%=      5-min Rain = 0
KGU1 241203Z 29012KT 18/M05 A3006 RMK A01 T01821045  RH  021%=      5-min Rain = 0
KGU1 241204Z 30010KT 18/M05 A3006 RMK A01 T01821046  RH  021%=      5-min Rain = 0
KGU1 241205Z 30012KT 18/M05 A3006 RMK A01 T01821045  RH  021%=      5-min Rain = 0
KGU1 241206Z 30013KT 18/M04 A3006 RMK A01 T01841044  RH  021%=      5-min Rain = 0
KGU1 241207Z 29012KT 18/M05 A3006 RMK A01 T01841045  RH  021%=      5-min Rain = 0
KGU1 241208Z 29012KT 19/M05 A3006 RMK A01 T01851045  RH  021%=      5-min Rain = 0
KGU1 241209Z 30012KT 19/M04 A3006 RMK A01 T01851044  RH  021%=      5-min Rain = 0
KGU1 241210Z 30012KT 19/M04 A3006 RMK A01 T01861044  RH  021%=      5-min Rain = 0
KGU1 241211Z 30012KT 18/M05 A3006 RMK A01 T01841045  RH  021%=      5-min Rain = 0
KGU1 241212Z 30011KT 18/M05 A3006 RMK A01 T01831045  RH  021%=      5-min Rain = 0
KGU1 241213Z 29012KT 18/M04 A3006 RMK A01 T01831044  RH  021%=      5-min Rain = 0
KGU1 241214Z 30012KT 18/M04 A3006 RMK A01 T01821044  RH  021%=      5-min Rain = 0
KGU1 241215Z 30012KT 18/M04 A3007 RMK A01 T01841043  RH  021%=      5-min Rain = 0
KGU1 241216Z 30012KT 19/M04 A3007 RMK A01 T01861042  RH  021%=      5-min Rain = 0
KGU1 241217Z 29012KT 19/M04 A3007 RMK A01 T01871042  RH  021%=      5-min Rain = 0
KGU1 241218Z 30013KT 19/M04 A3007 RMK A01 T01871042  RH  021%=      5-min Rain = 0
KGU1 241219Z 30011KT 19/M04 A3007 RMK A01 T01871043  RH  021%=      5-min Rain = 0
KGU1 241220Z 30011KT 19/M04 A3007 RMK A01 T01871042  RH  021%=      5-min Rain = 0
KGU1 241221Z 30013KT 19/M04 A3007 RMK A01 T01861042  RH  021%=      5-min Rain = 0
KGU1 241222Z 30013KT 19/M04 A3007 RMK A01 T01871042  RH  021%=      5-min Rain = 0
KGU1 241223Z 30011KT 19/M04 A3007 RMK A01 T01871042  RH  021%=      5-min Rain = 0
KGU1 241224Z 30010KT 19/M04 A3007 RMK A01 T01881041  RH  021%=      5-min Rain = 0
KGU1 241225Z 30009KT 19/M04 A3007 RMK A01 T01881041  RH  021%=      5-min Rain = 0
KGU1 241226Z 30011KT 19/M04 A3007 RMK A01 T01881040  RH  021%=      5-min Rain = 0
KGU1 241227Z 29011KT 19/M04 A3007 RMK A01 T01881041  RH  021%=      5-min Rain = 0
KGU1 241228Z 30011KT 19/M04 A3007 RMK A01 T01881041  RH  021%=      5-min Rain = 0
KGU1 241229Z 30011KT 19/M04 A3007 RMK A01 T01891041  RH  021%=      5-min Rain = 0
KGU1 241230Z 30013KT 19/M04 A3007 RMK A01 T01891040  RH  021%=      5-min Rain = 0
KGU1 241231Z 30011KT 19/M04 A3007 RMK A01 T01911039  RH  021%=      5-min Rain = 0
KGU1 241232Z 30012KT 19/M04 A3007 RMK A01 T01921039  RH  021%=      5-min Rain = 0
KGU1 241233Z 30009KT 19/M04 A3007 RMK A01 T01921040  RH  021%=      5-min Rain = 0
KGU1 241234Z 29009KT 19/M04 A3007 RMK A01 T01921040  RH  021%=      5-min Rain = 0
KGU1 241235Z 30008KT 19/M04 A3007 RMK A01 T01911041  RH  021%=      5-min Rain = 0
KGU1 241236Z 31008KT 19/M04 A3008 RMK A01 T01901041  RH  021%=      5-min Rain = 0
KGU1 241237Z 29010KT 19/M04 A3008 RMK A01 T01901043  RH  020%=      5-min Rain = 0
KGU1 241238Z 31008KT 19/M04 A3008 RMK A01 T01901043  RH  020%=      5-min Rain = 0
KGU1 241239Z 31009KT 19/M04 A3008 RMK A01 T01901043  RH  020%=      5-min Rain = 0
KGU1 241240Z 30009KT 19/M05 A3008 RMK A01 T01891045  RH  020%=      5-min Rain = 0
KGU1 241241Z 31010KT 19/M04 A3008 RMK A01 T01891044  RH  020%=      5-min Rain = 0
KGU1 241242Z 30009KT 19/M04 A3008 RMK A01 T01901044  RH  020%=      5-min Rain = 0
KGU1 241243Z 30011KT 19/M04 A3008 RMK A01 T01901044  RH  020%=      5-min Rain = 0
KGU1 241244Z 33010KT 19/M04 A3008 RMK A01 T01921041  RH  020%=      5-min Rain = 0
KGU1 241245Z 34009KT 19/M04 A3008 RMK A01 T01921039  RH  021%=      5-min Rain = 0
KGU1 241246Z 35007KT 19/M04 A3008 RMK A01 T01921040  RH  021%=      5-min Rain = 0
KGU1 241247Z 34007KT 19/M04 A3008 RMK A01 T01921041  RH  020%=      5-min Rain = 0
KGU1 241248Z 34007KT 19/M04 A3008 RMK A01 T01931040  RH  020%=      5-min Rain = 0
KGU1 241249Z 02007KT 19/M04 A3008 RMK A01 T01931041  RH  020%=      5-min Rain = 0
KGU1 241250Z 02005KT 19/M04 A3008 RMK A01 T01941041  RH  020%=      5-min Rain = 0
KGU1 241251Z 03003KT 20/M04 A3008 RMK A01 T01951038  RH  020%=      5-min Rain = 0
KGU1 241252Z 01004KT 20/M04 A3008 RMK A01 T01961038  RH  020%=      5-min Rain = 0
KGU1 241253Z 02004KT 20/M04 A3008 RMK A01 T01971041  RH  020%=      5-min Rain = 0
KGU1 241254Z 35005KT 20/M04 A3008 RMK A01 T01981041  RH  020%=      5-min Rain = 0
KGU1 241255Z 32006KT 20/M04 A3008 RMK A01 T01981040  RH  020%=      5-min Rain = 0
KGU1 241256Z 32007KT 20/M04 A3008 RMK A01 T01971040  RH  020%=      5-min Rain = 0
KGU1 241257Z 33006KT 20/M04 A3008 RMK A01 T01971042  RH  020%=      5-min Rain = 0
KGU1 241258Z 32007KT 20/M04 A3008 RMK A01 T01961040  RH  020%=      5-min Rain = 0
KGU1 241259Z 33007KT 20/M04 A3008 RMK A01 T01961039  RH  020%=      5-min Rain = 0
KGU1 241300Z 31007KT 20/M04 A3008 RMK A01 T01971041  RH  020%=      5-min Rain = 0
KGU1 241301Z 35005KT 20/M04 A3008 RMK A01 T01981040  RH  020%=      5-min Rain = 0
KGU1 241302Z 35004KT 20/M04 A3008 RMK A01 T01991042  RH  019%=      5-min Rain = 0
KGU1 241303Z 00005KT 20/M04 A3008 RMK A01 T02001042  RH  019%=      5-min Rain = 0
KGU1 241304Z 01004KT 20/M04 A3008 RMK A01 T02001043  RH  019%=      5-min Rain = 0
KGU1 241305Z 00002KT 20/M04 A3008 RMK A01 T02011040  RH  019%=      5-min Rain = 0
KGU1 241306Z 36003KT 20/M04 A3009 RMK A01 T02011038  RH  020%=      5-min Rain = 0
KGU1 241307Z 00003KT 20/M04 A3009 RMK A01 T02021042  RH  019%=      5-min Rain = 0
KGU1 241308Z 34002KT 20/M04 A3009 RMK A01 T02031039  RH  019%=      5-min Rain = 0
KGU1 241309Z 01003KT 20/M04 A3009 RMK A01 T02041037  RH  019%=      5-min Rain = 0
KGU1 241310Z 01002KT 20/M04 A3009 RMK A01 T02041039  RH  019%=      5-min Rain = 0
KGU1 241311Z 04001KT 21/M04 A3009 RMK A01 T02051038  RH  019%=      5-min Rain = 0
KGU1 241312Z 35000KT 21/M04 A3009 RMK A01 T02061041  RH  019%=      5-min Rain = 0
KGU1 241313Z 03002KT 21/M04 A3009 RMK A01 T02081040  RH  019%=      5-min Rain = 0
KGU1 241314Z 04003KT 21/M04 A3009 RMK A01 T02081036  RH  019%=      5-min Rain = 0
KGU1 241315Z 05004KT 21/M04 A3009 RMK A01 T02061036  RH  019%=      5-min Rain = 0
KGU1 241316Z 04004KT 20/M03 A3009 RMK A01 T02041032  RH  020%=      5-min Rain = 0
KGU1 241317Z 04004KT 20/M03 A3009 RMK A01 T02041031  RH  020%=      5-min Rain = 0
KGU1 241318Z 04002KT 20/M03 A3009 RMK A01 T02041029  RH  021%=      5-min Rain = 0
KGU1 241319Z 03003KT 20/M03 A3009 RMK A01 T02031026  RH  021%=      5-min Rain = 0
KGU1 241320Z 03004KT 20/M03 A3009 RMK A01 T02041025  RH  021%=      5-min Rain = 0
KGU1 241321Z 03004KT 20/M03 A3009 RMK A01 T02031030  RH  021%=      5-min Rain = 0
KGU1 241322Z 03004KT 20/M03 A3009 RMK A01 T02021031  RH  021%=      5-min Rain = 0
KGU1 241323Z 03004KT 20/M04 A3009 RMK A01 T02021035  RH  020%=      5-min Rain = 0
KGU1 241324Z 02004KT 20/M04 A3009 RMK A01 T02011035  RH  020%=      5-min Rain = 0
KGU1 241325Z 04004KT 20/M03 A3009 RMK A01 T02021030  RH  021%=      5-min Rain = 0
KGU1 241326Z 04004KT 20/M03 A3009 RMK A01 T02031030  RH  021%=      5-min Rain = 0
KGU1 241327Z 04006KT 20/M03 A3009 RMK A01 T02031034  RH  020%=      5-min Rain = 0
KGU1 241328Z 04005KT 20/M03 A3009 RMK A01 T02031034  RH  020%=      5-min Rain = 0
KGU1 241329Z 04005KT 20/M03 A3009 RMK A01 T02031033  RH  020%=      5-min Rain = 0
KGU1 241330Z 04005KT 20/M03 A3009 RMK A01 T02031032  RH  020%=      5-min Rain = 0
KGU1 241331Z 04004KT 20/M03 A3009 RMK A01 T02041027  RH  021%=      5-min Rain = 0
KGU1 241332Z 04006KT 21/M03 A3009 RMK A01 T02051032  RH  020%=      5-min Rain = 0
KGU1 241333Z 05006KT 20/M04 A3009 RMK A01 T02041036  RH  020%=      5-min Rain = 0
KGU1 241334Z 06006KT 20/M04 A301 RMK A01 T02031036  RH  020%=      5-min Rain = 0
KGU1 241335Z 05006KT 20/M04 A301 RMK A01 T02031037  RH  020%=      5-min Rain = 0
KGU1 241336Z 05006KT 20/M04 A301 RMK A01 T02021038  RH  020%=      5-min Rain = 0
KGU1 241337Z 07005KT 20/M04 A301 RMK A01 T02021038  RH  020%=      5-min Rain = 0
KGU1 241338Z 05005KT 20/M04 A301 RMK A01 T02031039  RH  019%=      5-min Rain = 0
KGU1 241339Z 06005KT 20/M04 A301 RMK A01 T02021042  RH  019%=      5-min Rain = 0
KGU1 241340Z 06004KT 20/M04 A301 RMK A01 T02011038  RH  020%=      5-min Rain = 0
KGU1 241341Z 05004KT 20/M04 A301 RMK A01 T02031037  RH  020%=      5-min Rain = 0
KGU1 241342Z 05005KT 20/M04 A301 RMK A01 T02041037  RH  020%=      5-min Rain = 0
KGU1 241343Z 04004KT 20/M04 A301 RMK A01 T02041040  RH  019%=      5-min Rain = 0
KGU1 241344Z 05005KT 20/M04 A301 RMK A01 T02031040  RH  019%=      5-min Rain = 0
KGU1 241345Z 06004KT 20/M04 A301 RMK A01 T02031038  RH  019%=      5-min Rain = 0
KGU1 241346Z 06004KT 20/M04 A301 RMK A01 T02041040  RH  019%=      5-min Rain = 0
KGU1 241347Z 06004KT 20/M04 A301 RMK A01 T02041040  RH  019%=      5-min Rain = 0
KGU1 241348Z 06004KT 20/M04 A301 RMK A01 T02041040  RH  019%=      5-min Rain = 0
KGU1 241349Z 03005KT 20/M04 A301 RMK A01 T02041042  RH  019%=      5-min Rain = 0
KGU1 241350Z 05004KT 20/M04 A301 RMK A01 T02031040  RH  019%=      5-min Rain = 0
KGU1 241351Z 05006KT 20/M04 A301 RMK A01 T02041040  RH  019%=      5-min Rain = 0
KGU1 241352Z 05005KT 20/M04 A301 RMK A01 T02031042  RH  019%=      5-min Rain = 0
KGU1 241353Z 05004KT 20/M04 A301 RMK A01 T02031039  RH  019%=      5-min Rain = 0
KGU1 241354Z 06004KT 20/M04 A301 RMK A01 T02041042  RH  019%=      5-min Rain = 0
KGU1 241355Z 07004KT 21/M04 A301 RMK A01 T02051042  RH  019%=      5-min Rain = 0
KGU1 241356Z 06004KT 21/M04 A301 RMK A01 T02051042  RH  019%=      5-min Rain = 0
KGU1 241357Z 04005KT 21/M04 A301 RMK A01 T02051042  RH  019%=      5-min Rain = 0
KGU1 241358Z 04004KT 20/M04 A301 RMK A01 T02041044  RH  018%=      5-min Rain = 0
KGU1 241359Z 06004KT 20/M04 A301 RMK A01 T02041039  RH  019%=      5-min Rain = 0
KGU1 241400Z 09005KT 21/M04 A301 RMK A01 T02051042  RH  019%=      5-min Rain = 0
KGU1 241401Z 09004KT 20/M04 A301 RMK A01 T02041043  RH  019%=      5-min Rain = 0
KGU1 241402Z 07004KT 20/M04 A301 RMK A01 T02041042  RH  019%=      5-min Rain = 0
KGU1 241403Z 09004KT 21/M04 A301 RMK A01 T02051041  RH  019%=      5-min Rain = 0
KGU1 241404Z 08004KT 21/M04 A301 RMK A01 T02051042  RH  019%=      5-min Rain = 0
KGU1 241405Z 08003KT 21/M04 A301 RMK A01 T02061039  RH  019%=      5-min Rain = 0
KGU1 241406Z 10005KT 21/M04 A301 RMK A01 T02081041  RH  018%=      5-min Rain = 0
KGU1 241407Z 13004KT 21/M04 A301 RMK A01 T02091043  RH  018%=      5-min Rain = 0
KGU1 241408Z 11005KT 21/M04 A301 RMK A01 T02091043  RH  018%=      5-min Rain = 0
KGU1 241409Z 11004KT 21/M05 A301 RMK A01 T02091047  RH  018%=      5-min Rain = 0
KGU1 241410Z 12005KT 21/M05 A301 RMK A01 T02081046  RH  018%=      5-min Rain = 0
KGU1 241411Z 11004KT 21/M05 A301 RMK A01 T02081045  RH  018%=      5-min Rain = 0
KGU1 241412Z 12004KT 21/M04 A301 RMK A01 T02101041  RH  018%=      5-min Rain = 0
KGU1 241413Z 12003KT 21/M04 A301 RMK A01 T02121044  RH  018%=      5-min Rain = 0
KGU1 241414Z 13005KT 21/M04 A301 RMK A01 T02131042  RH  018%=      5-min Rain = 0
KGU1 241415Z 13006KT 21/M05 A301 RMK A01 T02111047  RH  017%=      5-min Rain = 0
KGU1 241416Z 13006KT 21/M05 A301 RMK A01 T02091047  RH  017%=      5-min Rain = 0
KGU1 241417Z 13005KT 21/M05 A301 RMK A01 T02081048  RH  018%=      5-min Rain = 0
KGU1 241418Z 13004KT 21/M05 A301 RMK A01 T02071046  RH  018%=      5-min Rain = 0
KGU1 241419Z 11004KT 21/M05 A301 RMK A01 T02071047  RH  018%=      5-min Rain = 0
KGU1 241420Z 11004KT 21/M04 A3011 RMK A01 T02081044  RH  018%=      5-min Rain = 0
KGU1 241421Z 11004KT 21/M05 A3011 RMK A01 T02101045  RH  018%=      5-min Rain = 0
KGU1 241422Z 13003KT 21/M05 A3011 RMK A01 T02121045  RH  017%=      5-min Rain = 0
KGU1 241423Z 12003KT 21/M04 A301 RMK A01 T02121044  RH  018%=      5-min Rain = 0
KGU1 241424Z 10004KT 21/M05 A3011 RMK A01 T02121046  RH  017%=      5-min Rain = 0
KGU1 241425Z 11003KT 21/M05 A3011 RMK A01 T02121048  RH  017%=      5-min Rain = 0
KGU1 241426Z 15003KT 21/M05 A3011 RMK A01 T02111048  RH  017%=      5-min Rain = 0
KGU1 241427Z 14003KT 21/M04 A3011 RMK A01 T02121043  RH  018%=      5-min Rain = 0
KGU1 241428Z 12004KT 21/M05 A3011 RMK A01 T02131047  RH  017%=      5-min Rain = 0
KGU1 241429Z 15004KT 21/M05 A3011 RMK A01 T02131048  RH  017%=      5-min Rain = 0
KGU1 241430Z 15004KT 21/M05 A3011 RMK A01 T02121045  RH  017%=      5-min Rain = 0
KGU1 241431Z 14006KT 21/M05 A3011 RMK A01 T02111046  RH  017%=      5-min Rain = 0
KGU1 241432Z 16004KT 21/M05 A3011 RMK A01 T02111047  RH  017%=      5-min Rain = 0
KGU1 241433Z 13003KT 21/M05 A3011 RMK A01 T02111045  RH  018%=      5-min Rain = 0
KGU1 241434Z 12004KT 21/M05 A3011 RMK A01 T02141046  RH  017%=      5-min Rain = 0
KGU1 241435Z 14004KT 21/M05 A3011 RMK A01 T02131047  RH  017%=      5-min Rain = 0
KGU1 241436Z 16004KT 21/M05 A3011 RMK A01 T02131047  RH  017%=      5-min Rain = 0
KGU1 241437Z 12004KT 21/M04 A3011 RMK A01 T02131044  RH  018%=      5-min Rain = 0
KGU1 241438Z 14006KT 22/M04 A3011 RMK A01 T02151044  RH  017%=      5-min Rain = 0
KGU1 241439Z 16005KT 22/M05 A3011 RMK A01 T02151047  RH  017%=      5-min Rain = 0
KGU1 241440Z 16005KT 22/M05 A3011 RMK A01 T02161045  RH  017%=      5-min Rain = 0
KGU1 241441Z 16005KT 22/M05 A3011 RMK A01 T02161048  RH  017%=      5-min Rain = 0
KGU1 241442Z 14005KT 21/M05 A3011 RMK A01 T02131051  RH  017%=      5-min Rain = 0
KGU1 241443Z 12002KT 21/M05 A3011 RMK A01 T02101051  RH  017%=      5-min Rain = 0
KGU1 241444Z 13003KT 21/M05 A3011 RMK A01 T02121047  RH  017%=      5-min Rain = 0
KGU1 241445Z 14005KT 21/M05 A3011 RMK A01 T02141046  RH  017%=      5-min Rain = 0
KGU1 241446Z 13005KT 22/M05 A3011 RMK A01 T02161046  RH  017%=      5-min Rain = 0
KGU1 241447Z 13003KT 22/M05 A3011 RMK A01 T02161049  RH  017%=      5-min Rain = 0
KGU1 241448Z 14003KT 21/M05 A3011 RMK A01 T02141050  RH  017%=      5-min Rain = 0
KGU1 241449Z 13005KT 21/M05 A3011 RMK A01 T02141046  RH  017%=      5-min Rain = 0
KGU1 241450Z 14006KT 22/M05 A3011 RMK A01 T02151048  RH  017%=      5-min Rain = 0
KGU1 241451Z 12005KT 21/M05 A3011 RMK A01 T02141049  RH  017%=      5-min Rain = 0
KGU1 241452Z 15004KT 22/M05 A3011 RMK A01 T02151046  RH  017%=      5-min Rain = 0
KGU1 241453Z 13005KT 22/M05 A3011 RMK A01 T02161048  RH  017%=      5-min Rain = 0
KGU1 241454Z 14004KT 22/M05 A3011 RMK A01 T02151048  RH  017%=      5-min Rain = 0
KGU1 241455Z 16005KT 22/M05 A3011 RMK A01 T02161047  RH  017%=      5-min Rain = 0
KGU1 241456Z 18005KT 22/M05 A3011 RMK A01 T02161047  RH  017%=      5-min Rain = 0
KGU1 241457Z 17004KT 22/M05 A3011 RMK A01 T02151047  RH  017%=      5-min Rain = 0
KGU1 241458Z 18004KT 22/M05 A3011 RMK A01 T02151047  RH  017%=      5-min Rain = 0
KGU1 241459Z 17003KT 22/M05 A3011 RMK A01 T02161045  RH  017%=      5-min Rain = 0
KGU1 241500Z 16003KT 22/M04 A3011 RMK A01 T02191042  RH  017%=      5-min Rain = 0
KGU1 241501Z 15004KT 22/M05 A3011 RMK A01 T02211046  RH  016%=      5-min Rain = 0
KGU1 241502Z 13003KT 22/M05 A3011 RMK A01 T02201048  RH  016%=      5-min Rain = 0
KGU1 241503Z 15005KT 22/M05 A3011 RMK A01 T02181048  RH  016%=      5-min Rain = 0
KGU1 241504Z 16004KT 22/M05 A3011 RMK A01 T02181047  RH  017%=      5-min Rain = 0
KGU1 241505Z 16002KT 22/M05 A3011 RMK A01 T02191046  RH  017%=      5-min Rain = 0
KGU1 241506Z 12002KT 22/M05 A3011 RMK A01 T02211046  RH  016%=      5-min Rain = 0
KGU1 241507Z 15004KT 22/M05 A3011 RMK A01 T02221046  RH  016%=      5-min Rain = 0
KGU1 241508Z 16004KT 22/M05 A3011 RMK A01 T02221046  RH  016%=      5-min Rain = 0
KGU1 241509Z 17006KT 22/M05 A3011 RMK A01 T02211045  RH  017%=      5-min Rain = 0
KGU1 241510Z 17005KT 22/M05 A3011 RMK A01 T02221046  RH  016%=      5-min Rain = 0
KGU1 241511Z 17006KT 22/M04 A3011 RMK A01 T02221044  RH  017%=      5-min Rain = 0
KGU1 241512Z 16003KT 22/M05 A3011 RMK A01 T02211047  RH  016%=      5-min Rain = 0
KGU1 241513Z 16003KT 22/M05 A3011 RMK A01 T02211046  RH  016%=      5-min Rain = 0
KGU1 241514Z 14005KT 22/M05 A3011 RMK A01 T02201046  RH  016%=      5-min Rain = 0
KGU1 241515Z 16005KT 22/M05 A3011 RMK A01 T02201045  RH  017%=      5-min Rain = 0
KGU1 241516Z 15006KT 22/M04 A3011 RMK A01 T02211043  RH  017%=      5-min Rain = 0
KGU1 241517Z 14005KT 22/M04 A3011 RMK A01 T02241043  RH  017%=      5-min Rain = 0
KGU1 241518Z 14004KT 22/M05 A3011 RMK A01 T02241045  RH  016%=      5-min Rain = 0
KGU1 241519Z 11003KT 22/M05 A3011 RMK A01 T02231046  RH  016%=      5-min Rain = 0
KGU1 241520Z 09001KT 22/M05 A3011 RMK A01 T02221046  RH  016%=      5-min Rain = 0
KGU1 241521Z 16005KT 23/M04 A3011 RMK A01 T02251043  RH  016%=      5-min Rain = 0
KGU1 241522Z 18005KT 23/M05 A3011 RMK A01 T02271045  RH  016%=      5-min Rain = 0
KGU1 241523Z 20003KT 23/M05 A3011 RMK A01 T02251047  RH  016%=      5-min Rain = 0
KGU1 241524Z 16007KT 22/M05 A3011 RMK A01 T02231046  RH  016%=      5-min Rain = 0
KGU1 241525Z 15006KT 22/M05 A3011 RMK A01 T02221047  RH  016%=      5-min Rain = 0
KGU1 241526Z 14003KT 22/M05 A3011 RMK A01 T02201049  RH  016%=      5-min Rain = 0
KGU1 241527Z 10001KT 22/M05 A3011 RMK A01 T02211047  RH  016%=      5-min Rain = 0
KGU1 241528Z 08003KT 22/M05 A3011 RMK A01 T02231046  RH  016%=      5-min Rain = 0
KGU1 241529Z 12005KT 23/M05 A3011 RMK A01 T02251045  RH  016%=      5-min Rain = 0
KGU1 241530Z 17005KT 23/M05 A3011 RMK A01 T02251046  RH  016%=      5-min Rain = 0
KGU1 241531Z 17004KT 23/M04 A3011 RMK A01 T02261042  RH  016%=      5-min Rain = 0
KGU1 241532Z 19007KT 23/M04 A3011 RMK A01 T02291042  RH  016%=      5-min Rain = 0
KGU1 241533Z 21005KT 23/M04 A3011 RMK A01 T02261044  RH  016%=      5-min Rain = 0
KGU1 241534Z 19006KT 23/M05 A3011 RMK A01 T02251045  RH  016%=      5-min Rain = 0
KGU1 241535Z 18004KT 22/M05 A3011 RMK A01 T02221046  RH  016%=      5-min Rain = 0
KGU1 241536Z 17008KT 22/M04 A3011 RMK A01 T02221044  RH  017%=      5-min Rain = 0
KGU1 241537Z 16007KT 22/M04 A3011 RMK A01 T02231043  RH  017%=      5-min Rain = 0
KGU1 241538Z 16005KT 22/M04 A3011 RMK A01 T02241043  RH  016%=      5-min Rain = 0
KGU1 241539Z 16003KT 23/M04 A3011 RMK A01 T02251043  RH  016%=      5-min Rain = 0
KGU1 241540Z 15004KT 23/M04 A3011 RMK A01 T02251043  RH  016%=      5-min Rain = 0
KGU1 241541Z 14007KT 23/M04 A3011 RMK A01 T02271042  RH  016%=      5-min Rain = 0
KGU1 241542Z 17007KT 23/M04 A3011 RMK A01 T02261043  RH  016%=      5-min Rain = 0
KGU1 241543Z 16004KT 23/M04 A3011 RMK A01 T02261043  RH  016%=      5-min Rain = 0
KGU1 241544Z 17004KT 23/M04 A3011 RMK A01 T02271041  RH  016%=      5-min Rain = 0
KGU1 241545Z 16006KT 23/M04 A3011 RMK A01 T02301041  RH  016%=      5-min Rain = 0
KGU1 241546Z 16007KT 23/M04 A3011 RMK A01 T02291041  RH  016%=      5-min Rain = 0
KGU1 241547Z 15006KT 23/M04 A3011 RMK A01 T02281043  RH  016%=      5-min Rain = 0
KGU1 241548Z 16006KT 23/M04 A3011 RMK A01 T02261041  RH  017%=      5-min Rain = 0
KGU1 241549Z 16008KT 23/M04 A3011 RMK A01 T02281039  RH  017%=      5-min Rain = 0
KGU1 241550Z 15006KT 23/M04 A3011 RMK A01 T02261041  RH  017%=      5-min Rain = 0
KGU1 241551Z 18006KT 23/M04 A3011 RMK A01 T02281038  RH  017%=      5-min Rain = 0
KGU1 241552Z 18005KT 23/M04 A3011 RMK A01 T02311040  RH  016%=      5-min Rain = 0
KGU1 241553Z 17007KT 23/M04 A3011 RMK A01 T02301038  RH  016%=      5-min Rain = 0
KGU1 241554Z 18009KT 23/M04 A3011 RMK A01 T02291040  RH  016%=      5-min Rain = 0
KGU1 241555Z 17007KT 23/M04 A3011 RMK A01 T02281038  RH  017%=      5-min Rain = 0
KGU1 241556Z 16007KT 23/M04 A3011 RMK A01 T02301037  RH  017%=      5-min Rain = 0
KGU1 241557Z 18007KT 23/M04 A3011 RMK A01 T02301038  RH  017%=      5-min Rain = 0
KGU1 241558Z 18006KT 23/M04 A3011 RMK A01 T02281037  RH  017%=      5-min Rain = 0
KGU1 241559Z 18006KT 23/M03 A3011 RMK A01 T02291034  RH  017%=      5-min Rain = 0
KGU1 241600Z 16007KT 23/M04 A3011 RMK A01 T02321036  RH  017%=      5-min Rain = 0
KGU1 241601Z 16005KT 23/M04 A3011 RMK A01 T02291038  RH  017%=      5-min Rain = 0
KGU1 241602Z 16006KT 23/M04 A3011 RMK A01 T02291037  RH  017%=      5-min Rain = 0
KGU1 241603Z 17009KT 23/M04 A3011 RMK A01 T02301037  RH  017%=      5-min Rain = 0
KGU1 241604Z 18009KT 23/M04 A3011 RMK A01 T02301039  RH  016%=      5-min Rain = 0
KGU1 241605Z 19008KT 23/M04 A3011 RMK A01 T02321038  RH  016%=      5-min Rain = 0
KGU1 241606Z 19008KT 23/M04 A3011 RMK A01 T02341040  RH  016%=      5-min Rain = 0
KGU1 241607Z 19007KT 24/M04 A3011 RMK A01 T02371038  RH  016%=      5-min Rain = 0
KGU1 241608Z 19008KT 24/M04 A3011 RMK A01 T02361043  RH  015%=      5-min Rain = 0
KGU1 241609Z 18008KT 23/M04 A3011 RMK A01 T02331041  RH  016%=      5-min Rain = 0
KGU1 241610Z 16008KT 24/M04 A3011 RMK A01 T02351040  RH  016%=      5-min Rain = 0
KGU1 241611Z 16007KT 24/M04 A3011 RMK A01 T02351042  RH  016%=      5-min Rain = 0
KGU1 241612Z 17005KT 23/M04 A3011 RMK A01 T02331040  RH  016%=      5-min Rain = 0
KGU1 241613Z 17004KT 23/M04 A3011 RMK A01 T02331040  RH  016%=      5-min Rain = 0
KGU1 241614Z 18007KT 23/M04 A3011 RMK A01 T02341039  RH  016%=      5-min Rain = 0
KGU1 241615Z 19008KT 24/M04 A3011 RMK A01 T02351040  RH  016%=      5-min Rain = 0
KGU1 241616Z 18008KT 23/M04 A3011 RMK A01 T02341039  RH  016%=      5-min Rain = 0
KGU1 241617Z 17011KT 24/M04 A3011 RMK A01 T02351039  RH  016%=      5-min Rain = 0
KGU1 241618Z 18008KT 24/M04 A3011 RMK A01 T02371038  RH  016%=      5-min Rain = 0
KGU1 241619Z 18009KT 24/M04 A3011 RMK A01 T02381039  RH  016%=      5-min Rain = 0
KGU1 241620Z 20011KT 24/M04 A3011 RMK A01 T02371038  RH  016%=      5-min Rain = 0
KGU1 241621Z 20011KT 24/M04 A3011 RMK A01 T02351039  RH  016%=      5-min Rain = 0
KGU1 241622Z 21010KT 23/M04 A3011 RMK A01 T02341039  RH  016%=      5-min Rain = 0
KGU1 241623Z 19010KT 23/M04 A3011 RMK A01 T02331040  RH  016%=      5-min Rain = 0
KGU1 241624Z 20013KT 23/M04 A3011 RMK A01 T02311040  RH  016%=      5-min Rain = 0
KGU1 241625Z 20010KT 23/M04 A3011 RMK A01 T02311039  RH  016%=      5-min Rain = 0
KGU1 241626Z 20008KT 23/M04 A3012 RMK A01 T02331038  RH  016%=      5-min Rain = 0
KGU1 241627Z 21007G13KT 24/M04 A3011 RMK A01 T02371036  RH  016%=      5-min Rain = 0
KGU1 241628Z 19011G16KT 24/M04 A3011 RMK A01 T02381037  RH  016%=      5-min Rain = 0
KGU1 241629Z 20011KT 23/M04 A3011 RMK A01 T02341038  RH  016%=      5-min Rain = 0
KGU1 241630Z 19008KT 23/M04 A3011 RMK A01 T02321037  RH  016%=      5-min Rain = 0
KGU1 241631Z 18009KT 23/M04 A3011 RMK A01 T02311038  RH  016%=      5-min Rain = 0
KGU1 241632Z 20011KT 23/M04 A3011 RMK A01 T02331036  RH  016%=      5-min Rain = 0
KGU1 241633Z 20009KT 24/M04 A3011 RMK A01 T02351037  RH  016%=      5-min Rain = 0
KGU1 241634Z 19011KT 24/M04 A3011 RMK A01 T02371036  RH  016%=      5-min Rain = 0
KGU1 241635Z 19011KT 24/M04 A3011 RMK A01 T02361038  RH  016%=      5-min Rain = 0
KGU1 241636Z 19011KT 24/M04 A3011 RMK A01 T02361035  RH  016%=      5-min Rain = 0
KGU1 241637Z 19011KT 24/M04 A3011 RMK A01 T02351036  RH  016%=      5-min Rain = 0
KGU1 241638Z 19011KT 23/M04 A3011 RMK A01 T02331036  RH  016%=      5-min Rain = 0
KGU1 241639Z 20011KT 24/M04 A3011 RMK A01 T02351035  RH  016%=      5-min Rain = 0
KGU1 241640Z 19008KT 24/M04 A3011 RMK A01 T02361036  RH  016%=      5-min Rain = 0
KGU1 241641Z 20007KT 24/M04 A3011 RMK A01 T02351035  RH  016%=      5-min Rain = 0
KGU1 241642Z 20008KT 24/M04 A3011 RMK A01 T02361035  RH  016%=      5-min Rain = 0
KGU1 241643Z 19008G14KT 24/M04 A3011 RMK A01 T02381035  RH  016%=      5-min Rain = 0
KGU1 241644Z 18011KT 24/M04 A3011 RMK A01 T02401036  RH  016%=      5-min Rain = 0
KGU1 241645Z 20009KT 24/M04 A3011 RMK A01 T02391035  RH  016%=      5-min Rain = 0
KGU1 241646Z 21009KT 24/M03 A3011 RMK A01 T02421034  RH  016%=      5-min Rain = 0
KGU1 241647Z 19011G16KT 24/M03 A3011 RMK A01 T02411034  RH  016%=      5-min Rain = 0
KGU1 241648Z 20012KT 24/M04 A3011 RMK A01 T02421035  RH  016%=      5-min Rain = 0
KGU1 241649Z 20014KT 24/M04 A3011 RMK A01 T02411037  RH  016%=      5-min Rain = 0
KGU1 241650Z 19011KT 24/M04 A3011 RMK A01 T02381038  RH  016%=      5-min Rain = 0
KGU1 241651Z 20011KT 24/M04 A3011 RMK A01 T02391038  RH  016%=      5-min Rain = 0
KGU1 241652Z 20011KT 24/M04 A3011 RMK A01 T02401037  RH  016%=      5-min Rain = 0
KGU1 241653Z 20011KT 24/M04 A3011 RMK A01 T02411037  RH  016%=      5-min Rain = 0
KGU1 241654Z 20013KT 24/M04 A3011 RMK A01 T02401039  RH  015%=      5-min Rain = 0
KGU1 241655Z 20011KT 24/M04 A3011 RMK A01 T02401037  RH  016%=      5-min Rain = 0
KGU1 241656Z 21010G15KT 24/M04 A3011 RMK A01 T02411039  RH  015%=      5-min Rain = 0
KGU1 241657Z 20009KT 24/M04 A3011 RMK A01 T02411038  RH  016%=      5-min Rain = 0
KGU1 241658Z 21009G15KT 24/M04 A3011 RMK A01 T02411039  RH  015%=      5-min Rain = 0
KGU1 241659Z 21010G15KT 24/M04 A3011 RMK A01 T02421042  RH  015%=      5-min Rain = 0
KGU1 241700Z 20012KT 24/M04 A3011 RMK A01 T02431041  RH  015%=      5-min Rain = 0
KGU1 241701Z 19013KT 24/M05 A3011 RMK A01 T02431047  RH  014%=      5-min Rain = 0
KGU1 241702Z 21011KT 24/M05 A3011 RMK A01 T02441045  RH  014%=      5-min Rain = 0
KGU1 241703Z 21010G15KT 25/M05 A3011 RMK A01 T02451046  RH  014%=      5-min Rain = 0
KGU1 241704Z 21011KT 25/M05 A3011 RMK A01 T02451047  RH  014%=      5-min Rain = 0
KGU1 241705Z 19011KT 24/M05 A3011 RMK A01 T02431048  RH  014%=      5-min Rain = 0
KGU1 241706Z 19014KT 24/M05 A3011 RMK A01 T02411051  RH  014%=      5-min Rain = 0
KGU1 241707Z 19014KT 24/M05 A3011 RMK A01 T02421051  RH  014%=      5-min Rain = 0
KGU1 241708Z 19014G19KT 24/M05 A3011 RMK A01 T02421049  RH  014%=      5-min Rain = 0
KGU1 241709Z 19010KT 24/M05 A3011 RMK A01 T02421049  RH  014%=      5-min Rain = 0
KGU1 241710Z 20012G18KT 24/M05 A3011 RMK A01 T02441049  RH  014%=      5-min Rain = 0
KGU1 241711Z 20014KT 25/M05 A3011 RMK A01 T02451050  RH  014%=      5-min Rain = 0
KGU1 241712Z 21013KT 25/M05 A3011 RMK A01 T02461050  RH  014%=      5-min Rain = 0
KGU1 241713Z 21010KT 24/M06 A3012 RMK A01 T02431055  RH  013%=      5-min Rain = 0
KGU1 241714Z 21008KT 24/M06 A3012 RMK A01 T02421056  RH  013%=      5-min Rain = 0
KGU1 241715Z 21011KT 24/M05 A3011 RMK A01 T02431048  RH  014%=      5-min Rain = 0
KGU1 241716Z 20010KT 24/M05 A3011 RMK A01 T02431046  RH  014%=      5-min Rain = 0
KGU1 241717Z 18010KT 24/M05 A3011 RMK A01 T02441050  RH  014%=      5-min Rain = 0
KGU1 241718Z 19011G16KT 25/M05 A3011 RMK A01 T02461053  RH  013%=      5-min Rain = 0
KGU1 241719Z 19015KT 25/M05 A3011 RMK A01 T02461053  RH  013%=      5-min Rain = 0
KGU1 241720Z 19013KT 25/M06 A3011 RMK A01 T02451057  RH  013%=      5-min Rain = 0
KGU1 241721Z 21008KT 25/M05 A3011 RMK A01 T02461052  RH  013%=      5-min Rain = 0
KGU1 241722Z 24009KT 25/M06 A3011 RMK A01 T02511055  RH  013%=      5-min Rain = 0
KGU1 241723Z 24011KT 25/M06 A3011 RMK A01 T02511059  RH  012%=      5-min Rain = 0
KGU1 241724Z 24010KT 25/M06 A3011 RMK A01 T02471055  RH  013%=      5-min Rain = 0
KGU1 241725Z 22007KT 25/M05 A3011 RMK A01 T02471050  RH  014%=      5-min Rain = 0
KGU1 241726Z 21007KT 25/M05 A3011 RMK A01 T02491049  RH  014%=      5-min Rain = 0
KGU1 241727Z 22007KT 25/M05 A3011 RMK A01 T02501049  RH  013%=      5-min Rain = 0
KGU1 241728Z 25008KT 25/M05 A3011 RMK A01 T02541053  RH  013%=      5-min Rain = 0
KGU1 241729Z 27012KT 26/M06 A3011 RMK A01 T02551058  RH  012%=      5-min Rain = 0
KGU1 241730Z 26011G16KT 25/M06 A3011 RMK A01 T02541058  RH  012%=      5-min Rain = 0
KGU1 241731Z 23009KT 25/M06 A3011 RMK A01 T02541057  RH  012%=      5-min Rain = 0
KGU1 241732Z 22009KT 26/M06 A3011 RMK A01 T02561055  RH  012%=      5-min Rain = 0
KGU1 241733Z 23009KT 26/M06 A3011 RMK A01 T02571056  RH  012%=      5-min Rain = 0
KGU1 241734Z 25008KT 26/M06 A3011 RMK A01 T02561058  RH  012%=      5-min Rain = 0
KGU1 241735Z 22006KT 26/M06 A3011 RMK A01 T02561057  RH  012%=      5-min Rain = 0
KGU1 241736Z 21008KT 26/M06 A3011 RMK A01 T02571058  RH  012%=      5-min Rain = 0
KGU1 241737Z 20010KT 26/M06 A3011 RMK A01 T02551060  RH  012%=      5-min Rain = 0
KGU1 241738Z 23011G17KT 25/M06 A3011 RMK A01 T02531062  RH  012%=      5-min Rain = 0
KGU1 241739Z 25011KT 25/M06 A3011 RMK A01 T02501064  RH  012%=      5-min Rain = 0
KGU1 241740Z 25015KT 25/M06 A3011 RMK A01 T02491063  RH  012%=      5-min Rain = 0
KGU1 241741Z 25012KT 25/M06 A3011 RMK A01 T02491062  RH  012%=      5-min Rain = 0
KGU1 241742Z 24007KT 25/M06 A3011 RMK A01 T02481061  RH  012%=      5-min Rain = 0
KGU1 241743Z 26006KT 25/M06 A3011 RMK A01 T02501056  RH  013%=      5-min Rain = 0
KGU1 241744Z 25006KT 26/M06 A3011 RMK A01 T02561056  RH  012%=      5-min Rain = 0
KGU1 241745Z 22010KT 26/M06 A3011 RMK A01 T02561059  RH  012%=      5-min Rain = 0
KGU1 241746Z 23007KT 25/M06 A3011 RMK A01 T02521061  RH  012%=      5-min Rain = 0
KGU1 241747Z 27009KT 25/M06 A3011 RMK A01 T02541056  RH  013%=      5-min Rain = 0
KGU1 241748Z 25012KT 26/M06 A3011 RMK A01 T02571058  RH  012%=      5-min Rain = 0
KGU1 241749Z 25009KT 25/M06 A3011 RMK A01 T02511064  RH  012%=      5-min Rain = 0
KGU1 241750Z 26010KT 25/M06 A3011 RMK A01 T02501058  RH  013%=      5-min Rain = 0
KGU1 241751Z 25010KT 25/M06 A3011 RMK A01 T02541057  RH  012%=      5-min Rain = 0
KGU1 241752Z 26011KT 25/M06 A3011 RMK A01 T02541060  RH  012%=      5-min Rain = 0
KGU1 241753Z 26008KT 25/M06 A3011 RMK A01 T02511060  RH  012%=      5-min Rain = 0
KGU1 241754Z 24011KT 25/M06 A3011 RMK A01 T02511061  RH  012%=      5-min Rain = 0
KGU1 241755Z 25010G15KT 25/M06 A3011 RMK A01 T02531059  RH  012%=      5-min Rain = 0
KGU1 241756Z 26009KT 25/M06 A3011 RMK A01 T02541058  RH  012%=      5-min Rain = 0
KGU1 241757Z 25009KT 26/M06 A3011 RMK A01 T02571056  RH  012%=      5-min Rain = 0
KGU1 241758Z 24008KT 26/M06 A3011 RMK A01 T02591055  RH  012%=      5-min Rain = 0
KGU1 241759Z 25011KT 26/M06 A3011 RMK A01 T02591059  RH  012%=      5-min Rain = 0
KGU1 241800Z 25010KT 25/M06 A3011 RMK A01 T02541062  RH  012%=      5-min Rain = 0
KGU1 241801Z 24006KT 25/M06 A3011 RMK A01 T02501061  RH  012%=      5-min Rain = 0
KGU1 241802Z 27009KT 25/M06 A3011 RMK A01 T02501056  RH  013%=      5-min Rain = 0
KGU1 241803Z 27013KT 25/M06 A301 RMK A01 T02531055  RH  013%=      5-min Rain = 0
KGU1 241804Z 27011KT 25/M06 A3011 RMK A01 T02541058  RH  012%=      5-min Rain = 0
KGU1 241805Z 27011KT 26/M06 A301 RMK A01 T02551057  RH  012%=      5-min Rain = 0
KGU1 241806Z 25010KT 25/M06 A301 RMK A01 T02541059  RH  012%=      5-min Rain = 0
KGU1 241807Z 24007KT 25/M06 A301 RMK A01 T02511058  RH  012%=      5-min Rain = 0
KGU1 241808Z 24010KT 25/M06 A301 RMK A01 T02521060  RH  012%=      5-min Rain = 0
KGU1 241809Z 24009KT 26/M06 A301 RMK A01 T02561057  RH  012%=      5-min Rain = 0
KGU1 241810Z 23013KT 26/M06 A301 RMK A01 T02581056  RH  012%=      5-min Rain = 0
KGU1 241811Z 24012KT 25/M06 A301 RMK A01 T02531059  RH  012%=      5-min Rain = 0
KGU1 241812Z 26011G16KT 25/M06 A301 RMK A01 T02471059  RH  013%=      5-min Rain = 0
KGU1 241813Z 28012KT 25/M06 A301 RMK A01 T02461055  RH  013%=      5-min Rain = 0
KGU1 241814Z 23010KT 25/M05 A301 RMK A01 T02491053  RH  013%=      5-min Rain = 0
KGU1 241815Z 22007KT 25/M05 A301 RMK A01 T02501052  RH  013%=      5-min Rain = 0
KGU1 241816Z 22009G14KT 25/M05 A301 RMK A01 T02511052  RH  013%=      5-min Rain = 0
KGU1 241817Z 24013KT 25/M05 A301 RMK A01 T02531051  RH  013%=      5-min Rain = 0
KGU1 241818Z 21010KT 25/M05 A301 RMK A01 T02531049  RH  013%=      5-min Rain = 0
KGU1 241819Z 21007KT 25/M06 A301 RMK A01 T02521057  RH  012%=      5-min Rain = 0
KGU1 241820Z 26008KT 25/M06 A301 RMK A01 T02501060  RH  012%=      5-min Rain = 0
KGU1 241821Z 27008G13KT 25/M06 A301 RMK A01 T02491062  RH  012%=      5-min Rain = 0
KGU1 241822Z 28007G13KT 25/M06 A301 RMK A01 T02461060  RH  013%=      5-min Rain = 0
KGU1 241823Z 29012KT 25/M06 A301 RMK A01 T02491056  RH  013%=      5-min Rain = 0
KGU1 241824Z 28009KT 25/M06 A301 RMK A01 T02501055  RH  013%=      5-min Rain = 0
KGU1 241825Z 23012G17KT 25/M05 A301 RMK A01 T02541050  RH  013%=      5-min Rain = 0
KGU1 241826Z 23010KT 25/M05 A301 RMK A01 T02531051  RH  013%=      5-min Rain = 0
KGU1 241827Z 25010KT 25/M05 A301 RMK A01 T02521050  RH  013%=      5-min Rain = 0
KGU1 241828Z 26006KT 25/M05 A301 RMK A01 T02501053  RH  013%=      5-min Rain = 0
KGU1 241829Z 25011G16KT 25/M05 A301 RMK A01 T02511050  RH  013%=      5-min Rain = 0
KGU1 241830Z 25012KT 25/M06 A301 RMK A01 T02531056  RH  013%=      5-min Rain = 0
KGU1 241831Z 25012KT 25/M06 A301 RMK A01 T02521059  RH  012%=      5-min Rain = 0
KGU1 241832Z 26008KT 25/M06 A301 RMK A01 T02481061  RH  012%=      5-min Rain = 0
KGU1 241833Z 23006G13KT 25/M06 A301 RMK A01 T02461057  RH  013%=      5-min Rain = 0
KGU1 241834Z 23008KT 25/M05 A301 RMK A01 T02501051  RH  013%=      5-min Rain = 0
KGU1 241835Z 23005G10KT 25/M05 A301 RMK A01 T02481051  RH  013%=      5-min Rain = 0
KGU1 241836Z 26013KT 25/M06 A301 RMK A01 T02461057  RH  013%=      5-min Rain = 0
KGU1 241837Z 29008KT 25/M06 A301 RMK A01 T02461057  RH  013%=      5-min Rain = 0
KGU1 241838Z 26012KT 25/M05 A3009 RMK A01 T02471054  RH  013%=      5-min Rain = 0
KGU1 241839Z 26011KT 25/M05 A301 RMK A01 T02511052  RH  013%=      5-min Rain = 0
KGU1 241840Z 26012KT 26/M05 A3009 RMK A01 T02561048  RH  013%=      5-min Rain = 0
KGU1 241841Z 26012KT 26/M05 A3009 RMK A01 T02551053  RH  013%=      5-min Rain = 0
KGU1 241842Z 27010KT 25/M06 A3009 RMK A01 T02501057  RH  013%=      5-min Rain = 0
KGU1 241843Z 26010KT 25/M06 A3009 RMK A01 T02491056  RH  013%=      5-min Rain = 0
KGU1 241844Z 27004KT 25/M06 A3009 RMK A01 T02481056  RH  013%=      5-min Rain = 0
KGU1 241845Z 23008G16KT 25/M05 A3009 RMK A01 T02511050  RH  013%=      5-min Rain = 0
KGU1 241846Z 24012G19KT 25/M06 A3009 RMK A01 T02531057  RH  012%=      5-min Rain = 0
KGU1 241847Z 25012KT 25/M06 A3009 RMK A01 T02511057  RH  013%=      5-min Rain = 0
KGU1 241848Z 25010KT 25/M06 A3009 RMK A01 T02541058  RH  012%=      5-min Rain = 0
KGU1 241849Z 25010KT 25/M06 A3009 RMK A01 T02541056  RH  012%=      5-min Rain = 0
KGU1 241850Z 24012KT 25/M06 A3009 RMK A01 T02521056  RH  013%=      5-min Rain = 0
KGU1 241851Z 22011KT 25/M06 A3009 RMK A01 T02481056  RH  013%=      5-min Rain = 0
KGU1 241852Z 22010KT 25/M06 A3009 RMK A01 T02481056  RH  013%=      5-min Rain = 0
KGU1 241853Z 23011KT 25/M06 A3009 RMK A01 T02511057  RH  013%=      5-min Rain = 0
KGU1 241854Z 23008KT 25/M06 A3009 RMK A01 T02501056  RH  013%=      5-min Rain = 0
KGU1 241855Z 22011KT 25/M05 A3009 RMK A01 T02481054  RH  013%=      5-min Rain = 0
KGU1 241856Z 24013G19KT 25/M05 A3009 RMK A01 T02541051  RH  013%=      5-min Rain = 0
KGU1 241857Z 23012KT 25/M06 A3009 RMK A01 T02531058  RH  012%=      5-min Rain = 0
KGU1 241858Z 26004KT 25/M06 A3009 RMK A01 T02461060  RH  013%=      5-min Rain = 0
KGU1 241859Z 23007KT 25/M05 A3009 RMK A01 T02481053  RH  013%=      5-min Rain = 0
KGU1 241900Z 24012KT 26/M05 A3009 RMK A01 T02551049  RH  013%=      5-min Rain = 0
KGU1 241901Z 24014KT 25/M06 A3009 RMK A01 T02521056  RH  013%=      5-min Rain = 0
KGU1 241902Z 25013KT 25/M06 A3009 RMK A01 T02461057  RH  013%=      5-min Rain = 0
KGU1 241903Z 22011KT 25/M06 A3009 RMK A01 T02451057  RH  013%=      5-min Rain = 0
KGU1 241904Z 23011KT 25/M06 A3009 RMK A01 T02481055  RH  013%=      5-min Rain = 0
KGU1 241905Z 22015KT 25/M05 A3009 RMK A01 T02511050  RH  013%=      5-min Rain = 0
KGU1 241906Z 23010KT 25/M05 A3009 RMK A01 T02531047  RH  013%=      5-min Rain = 0
KGU1 241907Z 23010KT 26/M05 A3009 RMK A01 T02561046  RH  013%=      5-min Rain = 0
KGU1 241908Z 23011KT 25/M05 A3009 RMK A01 T02541054  RH  013%=      5-min Rain = 0
KGU1 241909Z 22012KT 25/M05 A3009 RMK A01 T02521053  RH  013%=      5-min Rain = 0
KGU1 241910Z 24008KT 25/M05 A3008 RMK A01 T02511054  RH  013%=      5-min Rain = 0
KGU1 241911Z 22012G17KT 25/M05 A3008 RMK A01 T02491050  RH  013%=      5-min Rain = 0
KGU1 241912Z 22013G19KT 25/M05 A3008 RMK A01 T02531051  RH  013%=      5-min Rain = 0
KGU1 241913Z 24015KT 26/M06 A3008 RMK A01 T02551055  RH  013%=      5-min Rain = 0
KGU1 241914Z 26010KT 25/M06 A3009 RMK A01 T02521060  RH  012%=      5-min Rain = 0
KGU1 241915Z 27008KT 25/M06 A3008 RMK A01 T02501059  RH  012%=      5-min Rain = 0
KGU1 241916Z 26003KT 25/M06 A3008 RMK A01 T02501059  RH  012%=      5-min Rain = 0
KGU1 241917Z 21007KT 25/M06 A3008 RMK A01 T02511055  RH  013%=      5-min Rain = 0
KGU1 241918Z 19012KT 25/M06 A3008 RMK A01 T02541056  RH  012%=      5-min Rain = 0
KGU1 241919Z 20011KT 25/M06 A3008 RMK A01 T02531058  RH  012%=      5-min Rain = 0
KGU1 241920Z 22011KT 25/M06 A3008 RMK A01 T02521055  RH  013%=      5-min Rain = 0
KGU1 241921Z 25010KT 26/M05 A3008 RMK A01 T02561049  RH  013%=      5-min Rain = 0
KGU1 241922Z 25008KT 26/M05 A3008 RMK A01 T02571051  RH  013%=      5-min Rain = 0
KGU1 241923Z 25007KT 26/M05 A3008 RMK A01 T02551053  RH  013%=      5-min Rain = 0
KGU1 241924Z 24006KT 25/M05 A3008 RMK A01 T02521052  RH  013%=      5-min Rain = 0
KGU1 241925Z 21008KT 25/M05 A3008 RMK A01 T02531050  RH  013%=      5-min Rain = 0
KGU1 241926Z 22010KT 26/M05 A3007 RMK A01 T02581051  RH  013%=      5-min Rain = 0
KGU1 241927Z 22008G13KT 26/M05 A3007 RMK A01 T02611051  RH  012%=      5-min Rain = 0
KGU1 241928Z 19008KT 26/M05 A3007 RMK A01 T02641050  RH  012%=      5-min Rain = 0
KGU1 241929Z 21014KT 26/M06 A3007 RMK A01 T02641056  RH  012%=      5-min Rain = 0
KGU1 241930Z 21013KT 26/M06 A3007 RMK A01 T02621063  RH  011%=      5-min Rain = 0
KGU1 241931Z 21011KT 26/M06 A3007 RMK A01 T02591062  RH  012%=      5-min Rain = 0
KGU1 241932Z 23007KT 26/M06 A3007 RMK A01 T02571063  RH  012%=      5-min Rain = 0
KGU1 241933Z 22008KT 26/M06 A3007 RMK A01 T02591058  RH  012%=      5-min Rain = 0
KGU1 241934Z 22012G19KT 26/M06 A3007 RMK A01 T02631059  RH  012%=      5-min Rain = 0
KGU1 241935Z 21012G18KT 26/M06 A3007 RMK A01 T02601060  RH  012%=      5-min Rain = 0
KGU1 241936Z 21014KT 26/M06 A3007 RMK A01 T02591059  RH  012%=      5-min Rain = 0
KGU1 241937Z 21013KT 26/M06 A3007 RMK A01 T02581059  RH  012%=      5-min Rain = 0
KGU1 241938Z 20013KT 26/M06 A3007 RMK A01 T02581063  RH  012%=      5-min Rain = 0
KGU1 241939Z 21012G17KT 26/M06 A3007 RMK A01 T02591060  RH  012%=      5-min Rain = 0
KGU1 241940Z 21009KT 26/M06 A3007 RMK A01 T02571059  RH  012%=      5-min Rain = 0
KGU1 241941Z 22009KT 26/M06 A3007 RMK A01 T02581055  RH  012%=      5-min Rain = 0
KGU1 241942Z 22009KT 26/M06 A3007 RMK A01 T02581057  RH  012%=      5-min Rain = 0
KGU1 241943Z 22009G14KT 26/M06 A3007 RMK A01 T02581055  RH  012%=      5-min Rain = 0
KGU1 241944Z 24010KT 26/M06 A3007 RMK A01 T02591058  RH  012%=      5-min Rain = 0
KGU1 241945Z 23010KT 26/M06 A3007 RMK A01 T02561058  RH  012%=      5-min Rain = 0
KGU1 241946Z 21008KT 26/M06 A3007 RMK A01 T02561057  RH  012%=      5-min Rain = 0
KGU1 241947Z 21009KT 26/M06 A3007 RMK A01 T02581057  RH  012%=      5-min Rain = 0
KGU1 241948Z 24009KT 26/M06 A3007 RMK A01 T02571060  RH  012%=      5-min Rain = 0
KGU1 241949Z 23013KT 26/M06 A3007 RMK A01 T02571064  RH  011%=      5-min Rain = 0
KGU1 241950Z 23010KT 26/M06 A3007 RMK A01 T02581064  RH  011%=      5-min Rain = 0
KGU1 241951Z 23012G22KT 26/M06 A3007 RMK A01 T02591064  RH  011%=      5-min Rain = 0
KGU1 241952Z 25015KT 26/M07 A3006 RMK A01 T02571068  RH  011%=      5-min Rain = 0
KGU1 241953Z 23011G16KT 26/M07 A3007 RMK A01 T02561070  RH  011%=      5-min Rain = 0
KGU1 241954Z 25010KT 26/M07 A3007 RMK A01 T02571067  RH  011%=      5-min Rain = 0
KGU1 241955Z 25008KT 26/M06 A3007 RMK A01 T02601062  RH  012%=      5-min Rain = 0
KGU1 241956Z 23010KT 26/M06 A3007 RMK A01 T02621064  RH  011%=      5-min Rain = 0
KGU1 241957Z 23011KT 26/M06 A3007 RMK A01 T02621064  RH  011%=      5-min Rain = 0
KGU1 241958Z 23014KT 26/M07 A3007 RMK A01 T02641070  RH  011%=      5-min Rain = 0
KGU1 241959Z 24011G21KT 26/M07 A3006 RMK A01 T02611069  RH  011%=      5-min Rain = 0
KGU1 242000Z 26011G17KT 26/M07 A3006 RMK A01 T02611074  RH  010%=      5-min Rain = 0
KGU1 242001Z 24012G17KT 26/M07 A3006 RMK A01 T02581069  RH  011%=      5-min Rain = 0
KGU1 242002Z 23010G18KT 26/M07 A3006 RMK A01 T02611066  RH  011%=      5-min Rain = 0
KGU1 242003Z 23010G15KT 26/M06 A3006 RMK A01 T02601062  RH  011%=      5-min Rain = 0
KGU1 242004Z 26010KT 26/M06 A3006 RMK A01 T02621060  RH  012%=      5-min Rain = 0
KGU1 242005Z 24013G18KT 27/M06 A3006 RMK A01 T02661064  RH  011%=      5-min Rain = 0
KGU1 242006Z 24012KT 26/M07 A3006 RMK A01 T02641066  RH  011%=      5-min Rain = 0
KGU1 242007Z 25014KT 26/M07 A3006 RMK A01 T02611069  RH  011%=      5-min Rain = 0
KGU1 242008Z 24012G17KT 26/M07 A3006 RMK A01 T02591071  RH  011%=      5-min Rain = 0
KGU1 242009Z 24012KT 26/M07 A3006 RMK A01 T02591069  RH  011%=      5-min Rain = 0
KGU1 242010Z 25008KT 26/M07 A3006 RMK A01 T02591069  RH  011%=      5-min Rain = 0
KGU1 242011Z 26011KT 26/M07 A3006 RMK A01 T02601065  RH  011%=      5-min Rain = 0
KGU1 242012Z 24009G19KT 26/M06 A3006 RMK A01 T02621063  RH  011%=      5-min Rain = 0
KGU1 242013Z 22015KT 27/M06 A3006 RMK A01 T02651063  RH  011%=      5-min Rain = 0
KGU1 242014Z 24012KT 27/M07 A3006 RMK A01 T02651065  RH  011%=      5-min Rain = 0
KGU1 242015Z 23010G17KT 26/M06 A3006 RMK A01 T02631064  RH  011%=      5-min Rain = 0
KGU1 242016Z 23011KT 26/M06 A3006 RMK A01 T02631060  RH  011%=      5-min Rain = 0
KGU1 242017Z 25013KT 27/M07 A3006 RMK A01 T02671065  RH  011%=      5-min Rain = 0
KGU1 242018Z 24013KT 27/M07 A3006 RMK A01 T02651067  RH  011%=      5-min Rain = 0
KGU1 242019Z 24013KT 26/M07 A3006 RMK A01 T02611068  RH  011%=      5-min Rain = 0
KGU1 242020Z 23014KT 26/M07 A3006 RMK A01 T02601065  RH  011%=      5-min Rain = 0
KGU1 242021Z 24014KT 26/M07 A3006 RMK A01 T02621065  RH  011%=      5-min Rain = 0
KGU1 242022Z 26013KT 26/M07 A3006 RMK A01 T02641074  RH  010%=      5-min Rain = 0
KGU1 242023Z 26010KT 26/M07 A3006 RMK A01 T02641071  RH  010%=      5-min Rain = 0
KGU1 242024Z 23013G18KT 27/M07 A3006 RMK A01 T02681065  RH  011%=      5-min Rain = 0
KGU1 242025Z 23018KT 27/M07 A3006 RMK A01 T02661073  RH  010%=      5-min Rain = 0
KGU1 242026Z 24011KT 26/M07 A3006 RMK A01 T02611074  RH  010%=      5-min Rain = 0
KGU1 242027Z 26009KT 26/M07 A3006 RMK A01 T02611074  RH  010%=      5-min Rain = 0
KGU1 242028Z 24010KT 26/M07 A3006 RMK A01 T02621069  RH  011%=      5-min Rain = 0
KGU1 242029Z 23010KT 26/M06 A3006 RMK A01 T02641063  RH  011%=      5-min Rain = 0
KGU1 242030Z 22009KT 27/M06 A3006 RMK A01 T02651061  RH  011%=      5-min Rain = 0
KGU1 242031Z 24008KT 27/M07 A3006 RMK A01 T02651065  RH  011%=      5-min Rain = 0
KGU1 242032Z 25007KT 26/M07 A3006 RMK A01 T02621065  RH  011%=      5-min Rain = 0
KGU1 242033Z 22010KT 26/M06 A3005 RMK A01 T02631062  RH  011%=      5-min Rain = 0
KGU1 242034Z 22009KT 26/M06 A3005 RMK A01 T02641060  RH  011%=      5-min Rain = 0
KGU1 242035Z 26009KT 27/M06 A3005 RMK A01 T02661059  RH  011%=      5-min Rain = 0
KGU1 242036Z 24009KT 27/M06 A3005 RMK A01 T02701061  RH  011%=      5-min Rain = 0
KGU1 242037Z 25013G18KT 27/M07 A3005 RMK A01 T02731065  RH  010%=      5-min Rain = 0
KGU1 242038Z 23013KT 27/M07 A3005 RMK A01 T02671067  RH  011%=      5-min Rain = 0
KGU1 242039Z 23011G17KT 27/M06 A3005 RMK A01 T02661064  RH  011%=      5-min Rain = 0
KGU1 242040Z 23012KT 26/M07 A3005 RMK A01 T02641065  RH  011%=      5-min Rain = 0
KGU1 242041Z 24013KT 26/M07 A3005 RMK A01 T02621065  RH  011%=      5-min Rain = 0
KGU1 242042Z 23011KT 26/M06 A3005 RMK A01 T02611064  RH  011%=      5-min Rain = 0
KGU1 242043Z 22012G17KT 26/M06 A3005 RMK A01 T02641058  RH  012%=      5-min Rain = 0
KGU1 242044Z 21012KT 27/M06 A3005 RMK A01 T02661062  RH  011%=      5-min Rain = 0
KGU1 242045Z 21013G18KT 27/M06 A3005 RMK A01 T02651060  RH  011%=      5-min Rain = 0
KGU1 242046Z 22012KT 27/M06 A3005 RMK A01 T02671063  RH  011%=      5-min Rain = 0
KGU1 242047Z 21011KT 27/M06 A3005 RMK A01 T02681062  RH  011%=      5-min Rain = 0
KGU1 242048Z 21012KT 27/M06 A3005 RMK A01 T02671061  RH  011%=      5-min Rain = 0
KGU1 242049Z 21012KT 26/M06 A3005 RMK A01 T02631057  RH  012%=      5-min Rain = 0
KGU1 242050Z 21013G18KT 26/M06 A3005 RMK A01 T02641057  RH  012%=      5-min Rain = 0
KGU1 242051Z 22010G16KT 26/M06 A3005 RMK A01 T02641059  RH  011%=      5-min Rain = 0
KGU1 242052Z 25015KT 27/M06 A3005 RMK A01 T02651063  RH  011%=      5-min Rain = 0
KGU1 242053Z 25011KT 27/M07 A3005 RMK A01 T02651067  RH  011%=      5-min Rain = 0
KGU1 242054Z 23010KT 27/M06 A3005 RMK A01 T02651062  RH  011%=      5-min Rain = 0
KGU1 242055Z 22011KT 27/M06 A3005 RMK A01 T02691060  RH  011%=      5-min Rain = 0
KGU1 242056Z 24012KT 27/M06 A3005 RMK A01 T02701061  RH  011%=      5-min Rain = 0
KGU1 242057Z 25011KT 27/M06 A3005 RMK A01 T02661063  RH  011%=      5-min Rain = 0
KGU1 242058Z 25012KT 27/M06 A3005 RMK A01 T02661063  RH  011%=      5-min Rain = 0
KGU1 242059Z 21011KT 27/M06 A3005 RMK A01 T02661063  RH  011%=      5-min Rain = 0
KGU1 242100Z 23008KT 26/M06 A3005 RMK A01 T02641063  RH  011%=      5-min Rain = 0
KGU1 242101Z 22009G15KT 27/M06 A3005 RMK A01 T02661061  RH  011%=      5-min Rain = 0
KGU1 242102Z 22013KT 27/M06 A3005 RMK A01 T02681059  RH  011%=      5-min Rain = 0
KGU1 242103Z 23008KT 27/M06 A3005 RMK A01 T02681060  RH  011%=      5-min Rain = 0
KGU1 242104Z 20005KT 27/M06 A3005 RMK A01 T02671061  RH  011%=      5-min Rain = 0
KGU1 242105Z 23008KT 27/M06 A3005 RMK A01 T02671057  RH  011%=      5-min Rain = 0
KGU1 242106Z 23010G15KT 27/M06 A3005 RMK A01 T02691055  RH  012%=      5-min Rain = 0
KGU1 242107Z 24013G18KT 27/M06 A3005 RMK A01 T02681061  RH  011%=      5-min Rain = 0
KGU1 242108Z 23002KT 26/M06 A3005 RMK A01 T02621063  RH  011%=      5-min Rain = 0
KGU1 242109Z 23007G12KT 26/M06 A3005 RMK A01 T02631058  RH  012%=      5-min Rain = 0
KGU1 242110Z 25008KT 27/M06 A3005 RMK A01 T02651060  RH  011%=      5-min Rain = 0
KGU1 242111Z 27004KT 26/M06 A3005 RMK A01 T02631064  RH  011%=      5-min Rain = 0
KGU1 242112Z 26005KT 27/M06 A3005 RMK A01 T02651059  RH  011%=      5-min Rain = 0
KGU1 242113Z 27008KT 27/M06 A3004 RMK A01 T02701060  RH  011%=      5-min Rain = 0
KGU1 242114Z 25010KT 27/M06 A3004 RMK A01 T02731057  RH  011%=      5-min Rain = 0
KGU1 242115Z 24012KT 27/M06 A3004 RMK A01 T02731058  RH  011%=      5-min Rain = 0
KGU1 242116Z 24010G15KT 27/M06 A3004 RMK A01 T02691059  RH  011%=      5-min Rain = 0
KGU1 242117Z 22008KT 27/M06 A3004 RMK A01 T02691055  RH  012%=      5-min Rain = 0
KGU1 242118Z 22006KT 27/M06 A3004 RMK A01 T02691058  RH  011%=      5-min Rain = 0
KGU1 242119Z 19005KT 27/M06 A3004 RMK A01 T02671059  RH  011%=      5-min Rain = 0
KGU1 242120Z 19004KT 27/M06 A3004 RMK A01 T02651063  RH  011%=      5-min Rain = 0
KGU1 242121Z 24010G15KT 26/M06 A3004 RMK A01 T02641057  RH  012%=      5-min Rain = 0
KGU1 242122Z 25011G16KT 27/M06 A3004 RMK A01 T02671061  RH  011%=      5-min Rain = 0
KGU1 242123Z 25006KT 27/M06 A3004 RMK A01 T02661063  RH  011%=      5-min Rain = 0
KGU1 242124Z 23010G16KT 27/M06 A3004 RMK A01 T02661060  RH  011%=      5-min Rain = 0
KGU1 242125Z 23011KT 27/M06 A3004 RMK A01 T02681059  RH  011%=      5-min Rain = 0
KGU1 242126Z 25012KT 27/M06 A3004 RMK A01 T02701060  RH  011%=      5-min Rain = 0
KGU1 242127Z 29009KT 27/M06 A3004 RMK A01 T02681063  RH  011%=      5-min Rain = 0
KGU1 242128Z 27009KT 27/M06 A3004 RMK A01 T02671062  RH  011%=      5-min Rain = 0
KGU1 242129Z 25011KT 27/M06 A3004 RMK A01 T02691060  RH  011%=      5-min Rain = 0
KGU1 242130Z 26010KT 27/M06 A3004 RMK A01 T02681061  RH  011%=      5-min Rain = 0
KGU1 242131Z 26008KT 27/M06 A3004 RMK A01 T02671063  RH  011%=      5-min Rain = 0
KGU1 242132Z 26004KT 27/M06 A3004 RMK A01 T02661062  RH  011%=      5-min Rain = 0
KGU1 242133Z 25007KT 27/M06 A3004 RMK A01 T02671064  RH  011%=      5-min Rain = 0
KGU1 242134Z 26008G13KT 27/M06 A3004 RMK A01 T02671060  RH  011%=      5-min Rain = 0
KGU1 242135Z 27007KT 27/M06 A3004 RMK A01 T02691062  RH  011%=      5-min Rain = 0
KGU1 242136Z 26007KT 27/M06 A3004 RMK A01 T02721058  RH  011%=      5-min Rain = 0
KGU1 242137Z 24005KT 27/M06 A3004 RMK A01 T02731060  RH  011%=      5-min Rain = 0
KGU1 242138Z 27005KT 27/M06 A3003 RMK A01 T02721059  RH  011%=      5-min Rain = 0
KGU1 242139Z 27007KT 28/M06 A3003 RMK A01 T02751059  RH  011%=      5-min Rain = 0
KGU1 242140Z 27008KT 28/M06 A3003 RMK A01 T02771058  RH  011%=      5-min Rain = 0
KGU1 242141Z 28006KT 28/M06 A3003 RMK A01 T02771060  RH  010%=      5-min Rain = 0
KGU1 242142Z 22003KT 27/M06 A3003 RMK A01 T02731062  RH  011%=      5-min Rain = 0
KGU1 242143Z 26010G17KT 27/M06 A3003 RMK A01 T02721060  RH  011%=      5-min Rain = 0
KGU1 242144Z 27009KT 27/M06 A3003 RMK A01 T02701060  RH  011%=      5-min Rain = 0
KGU1 242145Z 24008KT 27/M06 A3003 RMK A01 T02701060  RH  011%=      5-min Rain = 0
KGU1 242146Z 30005KT 27/M06 A3003 RMK A01 T02671062  RH  011%=      5-min Rain = 0
KGU1 242147Z 32003KT 27/M06 A3003 RMK A01 T02661062  RH  011%=      5-min Rain = 0
KGU1 242148Z 25004KT 27/M06 A3003 RMK A01 T02661060  RH  011%=      5-min Rain = 0
KGU1 242149Z 25009KT 27/M06 A3003 RMK A01 T02691059  RH  011%=      5-min Rain = 0
KGU1 242150Z 28004KT 27/M06 A3003 RMK A01 T02681061  RH  011%=      5-min Rain = 0
KGU1 242151Z 26007KT 27/M06 A3003 RMK A01 T02681060  RH  011%=      5-min Rain = 0
KGU1 242152Z 23008G13KT 27/M06 A3003 RMK A01 T02711058  RH  011%=      5-min Rain = 0
KGU1 242153Z 23010G15KT 27/M06 A3003 RMK A01 T02721057  RH  011%=      5-min Rain = 0
KGU1 242154Z 25005KT 27/M06 A3003 RMK A01 T02731059  RH  011%=      5-min Rain = 0
KGU1 242155Z 23003G8KT 27/M06 A3002 RMK A01 T02731059  RH  011%=      5-min Rain = 0
KGU1 242156Z 25008G14KT 27/M06 A3002 RMK A01 T02741059  RH  011%=      5-min Rain = 0
KGU1 242157Z 23010KT 28/M06 A3003 RMK A01 T02751059  RH  011%=      5-min Rain = 0
KGU1 242158Z 22007KT 27/M06 A3003 RMK A01 T02721063  RH  011%=      5-min Rain = 0
KGU1 242159Z 23006KT 27/M06 A3003 RMK A01 T02701062  RH  011%=      5-min Rain = 0
KGU1 242200Z 23008KT 27/M06 A3003 RMK A01 T02701059  RH  011%=      5-min Rain = 0
KGU1 242201Z 24011KT 27/M06 A3003 RMK A01 T02741058  RH  011%=      5-min Rain = 0
KGU1 242202Z 27010KT 28/M06 A3002 RMK A01 T02751063  RH  010%=      5-min Rain = 0
KGU1 242203Z 27008KT 28/M06 A3002 RMK A01 T02751061  RH  011%=      5-min Rain = 0
KGU1 242204Z 22009KT 28/M06 A3002 RMK A01 T02781060  RH  010%=      5-min Rain = 0
KGU1 242205Z 21013KT 28/M06 A3002 RMK A01 T02771061  RH  010%=      5-min Rain = 0
KGU1 242206Z 24012KT 27/M06 A3002 RMK A01 T02741061  RH  011%=      5-min Rain = 0
KGU1 242207Z 24014KT 27/M06 A3002 RMK A01 T02721062  RH  011%=      5-min Rain = 0
KGU1 242208Z 22008KT 27/M06 A3002 RMK A01 T02711060  RH  011%=      5-min Rain = 0
KGU1 242209Z 24004KT 27/M06 A3002 RMK A01 T02731057  RH  011%=      5-min Rain = 0
KGU1 242210Z 11001KT 28/M06 A3002 RMK A01 T02751062  RH  011%=      5-min Rain = 0
KGU1 242211Z 15002KT 28/M06 A3002 RMK A01 T02751062  RH  010%=      5-min Rain = 0
KGU1 242212Z 20005KT 27/M06 A3002 RMK A01 T02731061  RH  011%=      5-min Rain = 0
KGU1 242213Z 26009KT 27/M06 A3002 RMK A01 T02731060  RH  011%=      5-min Rain = 0
KGU1 242214Z 28009KT 27/M06 A3002 RMK A01 T02741062  RH  011%=      5-min Rain = 0
KGU1 242215Z 26005KT 27/M06 A3001 RMK A01 T02741062  RH  011%=      5-min Rain = 0
KGU1 242216Z 24006KT 28/M06 A3001 RMK A01 T02771059  RH  011%=      5-min Rain = 0
KGU1 242217Z 24008G13KT 28/M06 A3001 RMK A01 T02781060  RH  010%=      5-min Rain = 0
KGU1 242218Z 24007G12KT 28/M06 A3001 RMK A01 T02781062  RH  010%=      5-min Rain = 0
KGU1 242219Z 26010KT 28/M06 A3001 RMK A01 T02781061  RH  010%=      5-min Rain = 0
KGU1 242220Z 30010G15KT 28/M06 A3001 RMK A01 T02761064  RH  010%=      5-min Rain = 0
KGU1 242221Z 28011KT 27/M07 A3001 RMK A01 T02731065  RH  010%=      5-min Rain = 0
KGU1 242222Z 26013KT 27/M06 A3001 RMK A01 T02731064  RH  010%=      5-min Rain = 0
KGU1 242223Z 28013KT 28/M07 A3001 RMK A01 T02751065  RH  010%=      5-min Rain = 0
KGU1 242224Z 29011KT 28/M07 A3001 RMK A01 T02771065  RH  010%=      5-min Rain = 0
KGU1 242225Z 30011KT 28/M07 A3001 RMK A01 T02781065  RH  010%=      5-min Rain = 0
KGU1 242226Z 30010KT 28/M07 A3001 RMK A01 T02781066  RH  010%=      5-min Rain = 0
KGU1 242227Z 28012KT 28/M07 A3001 RMK A01 T02751066  RH  010%=      5-min Rain = 0
KGU1 242228Z 29011KT 28/M07 A3001 RMK A01 T02771065  RH  010%=      5-min Rain = 0
KGU1 242229Z 30007KT 28/M07 A3001 RMK A01 T02761066  RH  010%=      5-min Rain = 0
KGU1 242230Z 26011G17KT 28/M07 A3001 RMK A01 T02751065  RH  010%=      5-min Rain = 0
KGU1 242231Z 25010KT 28/M07 A3001 RMK A01 T02751067  RH  010%=      5-min Rain = 0
KGU1 242232Z 24009G14KT 28/M07 A3001 RMK A01 T02761067  RH  010%=      5-min Rain = 0
KGU1 242233Z 25008KT 27/M07 A3001 RMK A01 T02741069  RH  010%=      5-min Rain = 0
KGU1 242234Z 28007KT 27/M07 A3001 RMK A01 T02741066  RH  010%=      5-min Rain = 0
KGU1 242235Z 28007KT 28/M07 A3001 RMK A01 T02781068  RH  010%=      5-min Rain = 0
KGU1 242236Z 24007KT 28/M07 A3001 RMK A01 T02761066  RH  010%=      5-min Rain = 0
KGU1 242237Z 23007KT 28/M07 A3001 RMK A01 T02781065  RH  010%=      5-min Rain = 0
KGU1 242238Z 21009KT 28/M07 A3001 RMK A01 T02811065  RH  010%=      5-min Rain = 0
KGU1 242239Z 21012KT 28/M07 A3001 RMK A01 T02821068  RH  010%=      5-min Rain = 0
KGU1 242240Z 21009KT 28/M07 A3001 RMK A01 T02781070  RH  010%=      5-min Rain = 0
KGU1 242241Z 22010KT 28/M07 A3001 RMK A01 T02781068  RH  010%=      5-min Rain = 0
KGU1 242242Z 25011KT 28/M07 A3001 RMK A01 T02801069  RH  010%=      5-min Rain = 0
KGU1 242243Z 26007G13KT 28/M07 A3001 RMK A01 T02791072  RH  010%=      5-min Rain = 0
KGU1 242244Z 25009KT 28/M07 A3001 RMK A01 T02771070  RH  010%=      5-min Rain = 0
KGU1 242245Z 24014G20KT 28/M07 A3001 RMK A01 T02771070  RH  010%=      5-min Rain = 0
KGU1 242246Z 27018KT 28/M07 A30 RMK A01 T02761071  RH  010%=      5-min Rain = 0
KGU1 242247Z 23016KT 28/M07 A3001 RMK A01 T02771070  RH  010%=      5-min Rain = 0
KGU1 242248Z 23010KT 28/M07 A3001 RMK A01 T02791068  RH  010%=      5-min Rain = 0
KGU1 242249Z 21013KT 28/M07 A3001 RMK A01 T02781070  RH  010%=      5-min Rain = 0
KGU1 242250Z 21012KT 28/M07 A3001 RMK A01 T02761070  RH  010%=      5-min Rain = 0
KGU1 242251Z 22008KT 28/M07 A3001 RMK A01 T02761070  RH  010%=      5-min Rain = 0
KGU1 242252Z 23010KT 28/M07 A3001 RMK A01 T02761068  RH  010%=      5-min Rain = 0
KGU1 242253Z 25012KT 28/M07 A3001 RMK A01 T02761069  RH  010%=      5-min Rain = 0
KGU1 242254Z 27012KT 28/M07 A3001 RMK A01 T02761071  RH  010%=      5-min Rain = 0
KGU1 242255Z 30010KT 28/M07 A3001 RMK A01 T02761071  RH  010%=      5-min Rain = 0
KGU1 242256Z 29011KT 28/M07 A3001 RMK A01 T02761070  RH  010%=      5-min Rain = 0
KGU1 242257Z 28011KT 28/M07 A3001 RMK A01 T02761071  RH  010%=      5-min Rain = 0
KGU1 242258Z 24008KT 28/M07 A30 RMK A01 T02751072  RH  010%=      5-min Rain = 0
KGU1 242259Z 26005G10KT 27/M07 A30 RMK A01 T02741069  RH  010%=      5-min Rain = 0
KGU1 242300Z 25009KT 28/M07 A30 RMK A01 T02761070  RH  010%=      5-min Rain = 0
KGU1 242301Z 24008KT 28/M07 A30 RMK A01 T02761071  RH  010%=      5-min Rain = 0
KGU1 242302Z 22008G14KT 27/M07 A30 RMK A01 T02741071  RH  010%=      5-min Rain = 0
KGU1 242303Z 29009KT 27/M07 A30 RMK A01 T02731071  RH  010%=      5-min Rain = 0
KGU1 242304Z 27004KT 27/M07 A30 RMK A01 T02721071  RH  010%=      5-min Rain = 0
KGU1 242305Z 26012G19KT 27/M07 A3001 RMK A01 T02741069  RH  010%=      5-min Rain = 0
KGU1 242306Z 27010KT 27/M07 A30 RMK A01 T02741072  RH  010%=      5-min Rain = 0
KGU1 242307Z 25011KT 28/M07 A30 RMK A01 T02751069  RH  010%=      5-min Rain = 0
KGU1 242308Z 25010G18KT 28/M07 A30 RMK A01 T02751069  RH  010%=      5-min Rain = 0
KGU1 242309Z 26014G21KT 28/M07 A30 RMK A01 T02761070  RH  010%=      5-min Rain = 0
KGU1 242310Z 28011KT 28/M07 A30 RMK A01 T02761069  RH  010%=      5-min Rain = 0
KGU1 242311Z 26007KT 28/M07 A30 RMK A01 T02771070  RH  010%=      5-min Rain = 0
KGU1 242312Z 26007KT 28/M07 A30 RMK A01 T02761071  RH  010%=      5-min Rain = 0
KGU1 242313Z 26008KT 28/M07 A30 RMK A01 T02761069  RH  010%=      5-min Rain = 0
KGU1 242314Z 26009KT 28/M07 A30 RMK A01 T02781066  RH  010%=      5-min Rain = 0
KGU1 242315Z 27007KT 28/M07 A30 RMK A01 T02801068  RH  010%=      5-min Rain = 0
KGU1 242316Z 24010KT 28/M07 A30 RMK A01 T02811066  RH  010%=      5-min Rain = 0
KGU1 242317Z 24010G15KT 28/M07 A30 RMK A01 T02811065  RH  010%=      5-min Rain = 0
KGU1 242318Z 24013KT 28/M07 A30 RMK A01 T02791066  RH  010%=      5-min Rain = 0
KGU1 242319Z 25011KT 28/M07 A30 RMK A01 T02781066  RH  010%=      5-min Rain = 0
KGU1 242320Z 26013KT 28/M07 A30 RMK A01 T02801067  RH  010%=      5-min Rain = 0
KGU1 242321Z 28012G17KT 28/M07 A30 RMK A01 T02791068  RH  010%=      5-min Rain = 0
KGU1 242322Z 25013KT 28/M07 A30 RMK A01 T02791069  RH  010%=      5-min Rain = 0
KGU1 242323Z 24011KT 28/M07 A30 RMK A01 T02771070  RH  010%=      5-min Rain = 0
KGU1 242324Z 24011G17KT 28/M07 A30 RMK A01 T02761070  RH  010%=      5-min Rain = 0
KGU1 242325Z 24013KT 28/M07 A30 RMK A01 T02751070  RH  010%=      5-min Rain = 0
KGU1 242326Z 25012KT 28/M07 A30 RMK A01 T02751070  RH  010%=      5-min Rain = 0
KGU1 242327Z 25010KT 28/M07 A30 RMK A01 T02771068  RH  010%=      5-min Rain = 0
KGU1 242328Z 25011KT 28/M07 A30 RMK A01 T02771068  RH  010%=      5-min Rain = 0
KGU1 242329Z 25010KT 28/M07 A30 RMK A01 T02751069  RH  010%=      5-min Rain = 0
KGU1 242330Z 21009KT 28/M07 A30 RMK A01 T02751067  RH  010%=      5-min Rain = 0
KGU1 242331Z 22012KT 28/M07 A30 RMK A01 T02761068  RH  010%=      5-min Rain = 0
KGU1 242332Z 22012KT 27/M07 A30 RMK A01 T02741067  RH  010%=      5-min Rain = 0
KGU1 242333Z 23015KT 27/M07 A30 RMK A01 T02741068  RH  010%=      5-min Rain = 0
KGU1 242334Z 24017KT 27/M07 A30 RMK A01 T02731070  RH  010%=      5-min Rain = 0
KGU1 242335Z 25014KT 27/M07 A30 RMK A01 T02721069  RH  010%=      5-min Rain = 0
KGU1 242336Z 25018G23KT 27/M07 A30 RMK A01 T02731069  RH  010%=      5-min Rain = 0
KGU1 242337Z 25016KT 27/M07 A30 RMK A01 T02711071  RH  010%=      5-min Rain = 0
KGU1 242338Z 24011G19KT 27/M07 A30 RMK A01 T02691072  RH  010%=      5-min Rain = 0
KGU1 242339Z 27004KT 27/M07 A30 RMK A01 T02691071  RH  010%=      5-min Rain = 0
KGU1 242340Z 29011KT 27/M07 A30 RMK A01 T02711070  RH  010%=      5-min Rain = 0
KGU1 242341Z 29011KT 27/M07 A30 RMK A01 T02741070  RH  010%=      5-min Rain = 0
KGU1 242342Z 24011KT 27/M07 A30 RMK A01 T02741070  RH  010%=      5-min Rain = 0
KGU1 242343Z 24009KT 27/M07 A30 RMK A01 T02731069  RH  010%=      5-min Rain = 0
KGU1 242344Z 26007KT 27/M07 A30 RMK A01 T02731069  RH  010%=      5-min Rain = 0
KGU1 242345Z 25004KT 27/M07 A30 RMK A01 T02741068  RH  010%=      5-min Rain = 0
KGU1 242346Z 22005KT 28/M07 A30 RMK A01 T02751068  RH  010%=      5-min Rain = 0
KGU1 242347Z 21004KT 27/M07 A30 RMK A01 T02741069  RH  010%=      5-min Rain = 0
KGU1 242348Z 25005KT 27/M07 A30 RMK A01 T02741069  RH  010%=      5-min Rain = 0
KGU1 242349Z 24009KT 28/M07 A30 RMK A01 T02751069  RH  010%=      5-min Rain = 0
KGU1 242350Z 28008KT 27/M07 A30 RMK A01 T02741069  RH  010%=      5-min Rain = 0
KGU1 242351Z 23009G14KT 28/M07 A30 RMK A01 T02761066  RH  010%=      5-min Rain = 0
KGU1 242352Z 25010KT 28/M07 A30 RMK A01 T02761068  RH  010%=      5-min Rain = 0
KGU1 242353Z 24011KT 27/M07 A30 RMK A01 T02731070  RH  010%=      5-min Rain = 0
KGU1 242354Z 23008G13KT 27/M07 A30 RMK A01 T02731067  RH  010%=      5-min Rain = 0
KGU1 242355Z 23010KT 27/M07 A30 RMK A01 T02741068  RH  010%=      5-min Rain = 0
KGU1 242356Z 23010KT 27/M07 A30 RMK A01 T02731069  RH  010%=      5-min Rain = 0
KGU1 242357Z 23012G19KT 27/M07 A30 RMK A01 T02741067  RH  010%=      5-min Rain = 0
KGU1 242358Z 26016KT 27/M07 A30 RMK A01 T02741069  RH  010%=      5-min Rain = 0
KGU1 242359Z 28010G15KT 27/M07 A30 RMK A01 T02721070  RH  010%=      5-min Rain = 0
KGU1 250000Z 24009KT 27/M07 A30 RMK A01 T02721069  RH  010%=      5-min Rain = 0
KGU1 250001Z 24007KT 27/M07 A30 RMK A01 T02731068  RH  010%=      5-min Rain = 0
KGU1 250002Z 25009KT 27/M07 A30 RMK A01 T02731068  RH  010%=      5-min Rain = 0
KGU1 250003Z 24009KT 27/M07 A30 RMK A01 T02731068  RH  010%=      5-min Rain = 0
KGU1 250004Z 25012KT 27/M07 A30 RMK A01 T02731069  RH  010%=      5-min Rain = 0
KGU1 250005Z 24011KT 27/M07 A30 RMK A01 T02721070  RH  010%=      5-min Rain = 0
KGU1 250006Z 25012KT 27/M07 A30 RMK A01 T02711071  RH  010%=      5-min Rain = 0
KGU1 250007Z 23008KT 27/M07 A30 RMK A01 T02721069  RH  010%=      5-min Rain = 0
KGU1 250008Z 24013G19KT 27/M07 A30 RMK A01 T02721069  RH  010%=      5-min Rain = 0
KGU1 250009Z 24012KT 27/M07 A30 RMK A01 T02711071  RH  010%=      5-min Rain = 0
KGU1 250010Z 25012KT 27/M07 A30 RMK A01 T02701071  RH  010%=      5-min Rain = 0
KGU1 250011Z 25009KT 27/M07 A30 RMK A01 T02701070  RH  010%=      5-min Rain = 0
KGU1 250012Z 23010KT 27/M07 A30 RMK A01 T02701070  RH  010%=      5-min Rain = 0
KGU1 250013Z 23007G12KT 27/M07 A30 RMK A01 T02701069  RH  010%=      5-min Rain = 0
KGU1 250014Z 23006KT 27/M07 A30 RMK A01 T02711068  RH  010%=      5-min Rain = 0
KGU1 250015Z 24007KT 27/M07 A30 RMK A01 T02721068  RH  010%=      5-min Rain = 0
KGU1 250016Z 25010KT 27/M07 A30 RMK A01 T02711069  RH  010%=      5-min Rain = 0
KGU1 250017Z 23010KT 27/M07 A30 RMK A01 T02711070  RH  010%=      5-min Rain = 0
KGU1 250018Z 21011G17KT 27/M07 A30 RMK A01 T02691071  RH  010%=      5-min Rain = 0
KGU1 250019Z 21009KT 27/M07 A30 RMK A01 T02671072  RH  010%=      5-min Rain = 0
KGU1 250020Z 22008KT 27/M07 A30 RMK A01 T02671070  RH  010%=      5-min Rain = 0
KGU1 250021Z 23010KT 27/M07 A30 RMK A01 T02681069  RH  010%=      5-min Rain = 0
KGU1 250022Z 23010KT 27/M07 A30 RMK A01 T02681071  RH  010%=      5-min Rain = 0
KGU1 250023Z 26010KT 27/M07 A30 RMK A01 T02681070  RH  010%=      5-min Rain = 0
KGU1 250024Z 27009KT 27/M07 A30 RMK A01 T02681071  RH  010%=      5-min Rain = 0
KGU1 250025Z 27007KT 27/M07 A30 RMK A01 T02691071  RH  010%=      5-min Rain = 0
KGU1 250026Z 27005KT 27/M07 A30 RMK A01 T02691072  RH  010%=      5-min Rain = 0
KGU1 250027Z 26004KT 27/M07 A30 RMK A01 T02691071  RH  010%=      5-min Rain = 0
KGU1 250028Z 25004KT 27/M07 A30 RMK A01 T02701069  RH  010%=      5-min Rain = 0
KGU1 250029Z 26004KT 27/M07 A30 RMK A01 T02711068  RH  010%=      5-min Rain = 0
KGU1 250030Z 28004KT 27/M07 A30 RMK A01 T02721068  RH  010%=      5-min Rain = 0
KGU1 250031Z 27005KT 27/M07 A30 RMK A01 T02721066  RH  010%=      5-min Rain = 0
KGU1 250032Z 24007KT 27/M07 A30 RMK A01 T02721066  RH  010%=      5-min Rain = 0
KGU1 250033Z 24007KT 27/M07 A30 RMK A01 T02701069  RH  010%=      5-min Rain = 0
KGU1 250034Z 25005KT 27/M07 A30 RMK A01 T02691070  RH  010%=      5-min Rain = 0
KGU1 250035Z 26010G16KT 27/M07 A30 RMK A01 T02691069  RH  010%=      5-min Rain = 0
KGU1 250036Z 28011KT 27/M07 A30 RMK A01 T02681068  RH  010%=      5-min Rain = 0
KGU1 250037Z 29010KT 27/M07 A30 RMK A01 T02681069  RH  010%=      5-min Rain = 0
KGU1 250038Z 26008KT 27/M07 A30 RMK A01 T02671066  RH  011%=      5-min Rain = 0
KGU1 250039Z 25011KT 27/M07 A30 RMK A01 T02671069  RH  010%=      5-min Rain = 0
KGU1 250040Z 26010KT 27/M07 A30 RMK A01 T02671068  RH  011%=      5-min Rain = 0
KGU1 250041Z 28007KT 27/M07 A30 RMK A01 T02661066  RH  011%=      5-min Rain = 0
KGU1 250042Z 28008KT 27/M07 A30 RMK A01 T02671067  RH  011%=      5-min Rain = 0
KGU1 250043Z 28007KT 27/M07 A30 RMK A01 T02671066  RH  011%=      5-min Rain = 0
KGU1 250044Z 29009KT 27/M07 A30 RMK A01 T02661066  RH  011%=      5-min Rain = 0
KGU1 250045Z 28007KT 27/M06 A30 RMK A01 T02661064  RH  011%=      5-min Rain = 0
KGU1 250046Z 29010KT 27/M07 A30 RMK A01 T02671066  RH  011%=      5-min Rain = 0
KGU1 250047Z 30009KT 27/M07 A30 RMK A01 T02661065  RH  011%=      5-min Rain = 0
KGU1 250048Z 29007KT 27/M07 A30 RMK A01 T02661065  RH  011%=      5-min Rain = 0
KGU1 250049Z 28008KT 27/M07 A30 RMK A01 T02661065  RH  011%=      5-min Rain = 0
KGU1 250050Z 29008KT 27/M07 A30 RMK A01 T02661065  RH  011%=      5-min Rain = 0
KGU1 250051Z 28004KT 27/M06 A30 RMK A01 T02661064  RH  011%=      5-min Rain = 0
KGU1 250052Z 29008KT 27/M07 A30 RMK A01 T02651067  RH  011%=      5-min Rain = 0
KGU1 250053Z 30005KT 27/M07 A30 RMK A01 T02651068  RH  011%=      5-min Rain = 0
KGU1 250054Z 27006KT 26/M07 A30 RMK A01 T02641065  RH  011%=      5-min Rain = 0
KGU1 250055Z 25006KT 27/M06 A30 RMK A01 T02651064  RH  011%=      5-min Rain = 0
KGU1 250056Z 25005KT 26/M07 A30 RMK A01 T02641068  RH  011%=      5-min Rain = 0
KGU1 250057Z 26006KT 26/M07 A30 RMK A01 T02641065  RH  011%=      5-min Rain = 0
KGU1 250058Z 26007KT 26/M07 A30 RMK A01 T02641065  RH  011%=      5-min Rain = 0
KGU1 250059Z 24008KT 26/M07 A30 RMK A01 T02631070  RH  011%=      5-min Rain = 0
KGU1 250100Z 27006KT 26/M07 A30 RMK A01 T02631068  RH  011%=      5-min Rain = 0
KGU1 250101Z 27006KT 26/M07 A30 RMK A01 T02631068  RH  011%=      5-min Rain = 0
KGU1 250102Z 26006KT 26/M07 A30 RMK A01 T02621068  RH  011%=      5-min Rain = 0
KGU1 250103Z 26005KT 26/M07 A30 RMK A01 T02621069  RH  011%=      5-min Rain = 0
KGU1 250104Z 26005KT 26/M07 A30 RMK A01 T02621071  RH  011%=      5-min Rain = 0
KGU1 250105Z 28005KT 26/M07 A30 RMK A01 T02621067  RH  011%=      5-min Rain = 0
KGU1 250106Z 28004KT 26/M07 A30 RMK A01 T02621066  RH  011%=      5-min Rain = 0
KGU1 250107Z 27005KT 26/M06 A30 RMK A01 T02621064  RH  011%=      5-min Rain = 0
KGU1 250108Z 27005KT 26/M06 A3001 RMK A01 T02611064  RH  011%=      5-min Rain = 0
KGU1 250109Z 28005KT 26/M06 A3001 RMK A01 T02611063  RH  011%=      5-min Rain = 0
KGU1 250110Z 28006KT 26/M06 A30 RMK A01 T02611064  RH  011%=      5-min Rain = 0
KGU1 250111Z 29006KT 26/M07 A30 RMK A01 T02591065  RH  011%=      5-min Rain = 0
KGU1 250112Z 29006KT 26/M07 A30 RMK A01 T02591065  RH  011%=      5-min Rain = 0
KGU1 250113Z 30006KT 26/M07 A3001 RMK A01 T02571065  RH  011%=      5-min Rain = 0
KGU1 250114Z 31006KT 25/M07 A3001 RMK A01 T02541065  RH  012%=      5-min Rain = 0
KGU1 250115Z 31006KT 25/M06 A3001 RMK A01 T02511064  RH  012%=      5-min Rain = 0
KGU1 250116Z 30005KT 25/M06 A3001 RMK A01 T02491063  RH  012%=      5-min Rain = 0
KGU1 250117Z 30006KT 25/M06 A3001 RMK A01 T02471062  RH  012%=      5-min Rain = 0
KGU1 250118Z 31006KT 25/M06 A3001 RMK A01 T02451061  RH  013%=      5-min Rain = 0
KGU1 250119Z 31007KT 24/M06 A3001 RMK A01 T02441061  RH  013%=      5-min Rain = 0
KGU1 250120Z 30007KT 24/M07 A3001 RMK A01 T02441067  RH  012%=      5-min Rain = 0
KGU1 250121Z 31006KT 25/M07 A3001 RMK A01 T02461070  RH  012%=      5-min Rain = 0
KGU1 250122Z 29006KT 25/M07 A3001 RMK A01 T02461069  RH  012%=      5-min Rain = 0
KGU1 250123Z 27010KT 25/M07 A3001 RMK A01 T02461068  RH  012%=      5-min Rain = 0
KGU1 250124Z 27007KT 25/M07 A3001 RMK A01 T02471071  RH  012%=      5-min Rain = 0
KGU1 250125Z 28006KT 25/M07 A3001 RMK A01 T02481069  RH  012%=      5-min Rain = 0
KGU1 250126Z 28006KT 25/M07 A3001 RMK A01 T02471067  RH  012%=      5-min Rain = 0
KGU1 250127Z 28006KT 24/M07 A3001 RMK A01 T02441067  RH  012%=      5-min Rain = 0
KGU1 250128Z 29008KT 24/M07 A3001 RMK A01 T02441069  RH  012%=      5-min Rain = 0
KGU1 250129Z 29008KT 24/M07 A3001 RMK A01 T02441067  RH  012%=      5-min Rain = 0
KGU1 250130Z 28008KT 24/M07 A3001 RMK A01 T02431066  RH  012%=      5-min Rain = 0
KGU1 250131Z 28006KT 24/M07 A3001 RMK A01 T02431067  RH  012%=      5-min Rain = 0
KGU1 250132Z 29006KT 24/M07 A3001 RMK A01 T02421065  RH  013%=      5-min Rain = 0
KGU1 250133Z 29006KT 24/M07 A3001 RMK A01 T02401065  RH  013%=      5-min Rain = 0
KGU1 250134Z 29005KT 24/M07 A3001 RMK A01 T02391065  RH  013%=      5-min Rain = 0
KGU1 250135Z 28006KT 24/M06 A3001 RMK A01 T02371064  RH  013%=      5-min Rain = 0
KGU1 250136Z 28007KT 24/M06 A3001 RMK A01 T02351064  RH  013%=      5-min Rain = 0
KGU1 250137Z 29006KT 23/M06 A3001 RMK A01 T02331064  RH  013%=      5-min Rain = 0
KGU1 250138Z 29006KT 23/M06 A3001 RMK A01 T02331064  RH  013%=      5-min Rain = 0
KGU1 250139Z 29006KT 23/M06 A3001 RMK A01 T02321064  RH  013%=      5-min Rain = 0
KGU1 250140Z 29005KT 23/M06 A3001 RMK A01 T02311064  RH  013%=      5-min Rain = 0
KGU1 250141Z 30005KT 23/M06 A3001 RMK A01 T02291064  RH  014%=      5-min Rain = 0
KGU1 250142Z 29007KT 23/M06 A3001 RMK A01 T02281064  RH  014%=      5-min Rain = 0
KGU1 250143Z 29007KT 23/M06 A3001 RMK A01 T02261064  RH  014%=      5-min Rain = 0
KGU1 250144Z 29007KT 23/M07 A3001 RMK A01 T02251065  RH  014%=      5-min Rain = 0
KGU1 250145Z 30008KT 23/M07 A3001 RMK A01 T02251065  RH  014%=      5-min Rain = 0
KGU1 250146Z 30009KT 23/M06 A3001 RMK A01 T02251064  RH  014%=      5-min Rain = 0
KGU1 250147Z 30009KT 23/M06 A3001 RMK A01 T02251064  RH  014%=      5-min Rain = 0
KGU1 250148Z 30008KT 23/M06 A3001 RMK A01 T02261064  RH  014%=      5-min Rain = 0
KGU1 250149Z 30008KT 23/M07 A3001 RMK A01 T02281065  RH  014%=      5-min Rain = 0
KGU1 250150Z 31009KT 23/M07 A3001 RMK A01 T02291066  RH  013%=      5-min Rain = 0
KGU1 250151Z 31009KT 23/M07 A3001 RMK A01 T02321067  RH  013%=      5-min Rain = 0
KGU1 250152Z 31009KT 23/M07 A3001 RMK A01 T02341068  RH  013%=      5-min Rain = 0
KGU1 250153Z 32008KT 24/M07 A3001 RMK A01 T02361068  RH  013%=      5-min Rain = 0
KGU1 250154Z 31008KT 24/M07 A3001 RMK A01 T02361068  RH  013%=      5-min Rain = 0
KGU1 250155Z 32008KT 24/M07 A3001 RMK A01 T02371069  RH  012%=      5-min Rain = 0
KGU1 250156Z 31009KT 24/M07 A3001 RMK A01 T02371068  RH  013%=      5-min Rain = 0
KGU1 250157Z 31007KT 24/M07 A3001 RMK A01 T02371067  RH  013%=      5-min Rain = 0
KGU1 250158Z 31009KT 24/M07 A3001 RMK A01 T02361067  RH  013%=      5-min Rain = 0
KGU1 250159Z 32010KT 24/M07 A3001 RMK A01 T02361067  RH  013%=      5-min Rain = 0
KGU1 250200Z 32011KT 24/M07 A3001 RMK A01 T02361068  RH  013%=      5-min Rain = 0
KGU1 250201Z 31009KT 24/M07 A3001 RMK A01 T02361068  RH  013%=      5-min Rain = 0
KGU1 250202Z 29011KT 24/M07 A3001 RMK A01 T02361066  RH  013%=      5-min Rain = 0
KGU1 250203Z 30012KT 23/M07 A3001 RMK A01 T02331066  RH  013%=      5-min Rain = 0
KGU1 250204Z 30011KT 23/M07 A3001 RMK A01 T02311066  RH  013%=      5-min Rain = 0
KGU1 250205Z 30012KT 23/M07 A3001 RMK A01 T02301066  RH  013%=      5-min Rain = 0
KGU1 250206Z 30012KT 23/M07 A3001 RMK A01 T02301066  RH  013%=      5-min Rain = 0
KGU1 250207Z 30012KT 23/M07 A3001 RMK A01 T02301066  RH  013%=      5-min Rain = 0
KGU1 250208Z 29010KT 23/M07 A3001 RMK A01 T02301066  RH  013%=      5-min Rain = 0
KGU1 250209Z 30011KT 23/M07 A3002 RMK A01 T02291066  RH  013%=      5-min Rain = 0
KGU1 250210Z 30012KT 23/M07 A3002 RMK A01 T02301067  RH  013%=      5-min Rain = 0
KGU1 250211Z 30011KT 23/M07 A3002 RMK A01 T02311067  RH  013%=      5-min Rain = 0
KGU1 250212Z 30011KT 23/M07 A3002 RMK A01 T02321067  RH  013%=      5-min Rain = 0
KGU1 250213Z 30011KT 23/M07 A3002 RMK A01 T02321067  RH  013%=      5-min Rain = 0
KGU1 250214Z 30012KT 23/M07 A3002 RMK A01 T02311067  RH  013%=      5-min Rain = 0
KGU1 250215Z 30010KT 23/M07 A3002 RMK A01 T02311067  RH  013%=      5-min Rain = 0
KGU1 250216Z 31012KT 23/M07 A3002 RMK A01 T02301067  RH  013%=      5-min Rain = 0
KGU1 250217Z 31013KT 23/M07 A3002 RMK A01 T02301067  RH  013%=      5-min Rain = 0
KGU1 250218Z 31012KT 23/M07 A3002 RMK A01 T02301067  RH  013%=      5-min Rain = 0
KGU1 250219Z 30012KT 23/M07 A3002 RMK A01 T02301067  RH  013%=      5-min Rain = 0
KGU1 250220Z 30010KT 23/M07 A3002 RMK A01 T02301067  RH  013%=      5-min Rain = 0
KGU1 250221Z 30012KT 23/M07 A3002 RMK A01 T02301067  RH  013%=      5-min Rain = 0
KGU1 250222Z 30012KT 23/M07 A3002 RMK A01 T02291067  RH  013%=      5-min Rain = 0
KGU1 250223Z 30012KT 23/M07 A3002 RMK A01 T02291067  RH  013%=      5-min Rain = 0
KGU1 250224Z 29011KT 23/M07 A3002 RMK A01 T02281067  RH  013%=      5-min Rain = 0
KGU1 250225Z 30010KT 23/M07 A3002 RMK A01 T02271067  RH  013%=      5-min Rain = 0
KGU1 250226Z 30011KT 23/M07 A3002 RMK A01 T02271067  RH  013%=      5-min Rain = 0
KGU1 250227Z 30012KT 23/M07 A3002 RMK A01 T02271068  RH  013%=      5-min Rain = 0
KGU1 250228Z 30011KT 23/M07 A3002 RMK A01 T02261067  RH  013%=      5-min Rain = 0
KGU1 250229Z 30011KT 23/M07 A3002 RMK A01 T02261067  RH  014%=      5-min Rain = 0
KGU1 250230Z 30012KT 23/M07 A3002 RMK A01 T02251067  RH  014%=      5-min Rain = 0
KGU1 250231Z 30010KT 23/M07 A3002 RMK A01 T02261068  RH  013%=      5-min Rain = 0
KGU1 250232Z 30012KT 23/M07 A3002 RMK A01 T02261068  RH  013%=      5-min Rain = 0
KGU1 250233Z 30011KT 23/M07 A3002 RMK A01 T02271068  RH  013%=      5-min Rain = 0
KGU1 250234Z 31008KT 23/M07 A3002 RMK A01 T02281068  RH  013%=      5-min Rain = 0
KGU1 250235Z 31010KT 23/M07 A3002 RMK A01 T02251067  RH  014%=      5-min Rain = 0
KGU1 250236Z 31011KT 22/M07 A3002 RMK A01 T02221067  RH  014%=      5-min Rain = 0
KGU1 250237Z 31011KT 22/M07 A3002 RMK A01 T02211068  RH  014%=      5-min Rain = 0
KGU1 250238Z 31011KT 22/M07 A3002 RMK A01 T02221068  RH  014%=      5-min Rain = 0
KGU1 250239Z 31011KT 22/M07 A3002 RMK A01 T02211068  RH  014%=      5-min Rain = 0
KGU1 250240Z 30009KT 22/M07 A3002 RMK A01 T02191068  RH  014%=      5-min Rain = 0
KGU1 250241Z 31011KT 22/M07 A3002 RMK A01 T02191068  RH  014%=      5-min Rain = 0
KGU1 250242Z 31010KT 22/M07 A3002 RMK A01 T02181068  RH  014%=      5-min Rain = 0
KGU1 250243Z 31013KT 22/M07 A3002 RMK A01 T02181068  RH  014%=      5-min Rain = 0
KGU1 250244Z 30011KT 22/M07 A3002 RMK A01 T02181068  RH  014%=      5-min Rain = 0
KGU1 250245Z 30010KT 22/M07 A3002 RMK A01 T02181068  RH  014%=      5-min Rain = 0
KGU1 250246Z 30009KT 22/M07 A3002 RMK A01 T02181068  RH  014%=      5-min Rain = 0
KGU1 250247Z 30010KT 22/M07 A3002 RMK A01 T02181068  RH  014%=      5-min Rain = 0
KGU1 250248Z 30009KT 22/M07 A3003 RMK A01 T02191069  RH  014%=      5-min Rain = 0
KGU1 250249Z 30010KT 22/M07 A3003 RMK A01 T02181068  RH  014%=      5-min Rain = 0
KGU1 250250Z 31011KT 22/M07 A3003 RMK A01 T02181068  RH  014%=      5-min Rain = 0
KGU1 250251Z 31010KT 22/M07 A3003 RMK A01 T02191068  RH  014%=      5-min Rain = 0
KGU1 250252Z 31008KT 22/M07 A3003 RMK A01 T02191069  RH  014%=      5-min Rain = 0
KGU1 250253Z 30011KT 22/M07 A3003 RMK A01 T02191069  RH  014%=      5-min Rain = 0
KGU1 250254Z 30008KT 22/M07 A3003 RMK A01 T02191069  RH  014%=      5-min Rain = 0
KGU1 250255Z 30006KT 22/M07 A3003 RMK A01 T02191069  RH  014%=      5-min Rain = 0
KGU1 250256Z 29005KT 22/M07 A3003 RMK A01 T02181069  RH  014%=      5-min Rain = 0
KGU1 250257Z 27004KT 22/M07 A3003 RMK A01 T02171068  RH  014%=      5-min Rain = 0
KGU1 250258Z 26003KT 22/M07 A3004 RMK A01 T02151068  RH  014%=      5-min Rain = 0
KGU1 250259Z 25002KT 21/M07 A3004 RMK A01 T02141069  RH  014%=      5-min Rain = 0
KGU1 250300Z 18001KT 22/M07 A3004 RMK A01 T02151069  RH  014%=      5-min Rain = 0
KGU1 250301Z 13004G10KT 22/M07 A3005 RMK A01 T02161069  RH  014%=      5-min Rain = 0
KGU1 250302Z 12011KT 22/M05 A3005 RMK A01 T02161053  RH  016%=      5-min Rain = 0
KGU1 250303Z 12010KT 22/05 A3005 RMK A01 T02150046  RH  034%=      5-min Rain = 0
KGU1 250304Z 12008KT 22/07 A3005 RMK A01 T02160067  RH  039%=      5-min Rain = 0
KGU1 250305Z 11007KT 22/07 A3005 RMK A01 T02160066  RH  039%=      5-min Rain = 0
KGU1 250306Z 12006KT 22/06 A3005 RMK A01 T02150055  RH  036%=      5-min Rain = 0
KGU1 250307Z 13006KT 21/06 A3005 RMK A01 T02140055  RH  036%=      5-min Rain = 0
KGU1 250308Z 13005KT 21/07 A3005 RMK A01 T02120066  RH  040%=      5-min Rain = 0
KGU1 250309Z 12004KT 21/07 A3005 RMK A01 T02110069  RH  041%=      5-min Rain = 0
KGU1 250310Z 12003KT 21/07 A3004 RMK A01 T02100070  RH  041%=      5-min Rain = 0
KGU1 250311Z 13004KT 21/07 A3004 RMK A01 T02090072  RH  042%=      5-min Rain = 0
KGU1 250312Z 13004KT 21/07 A3004 RMK A01 T02080073  RH  043%=      5-min Rain = 0
KGU1 250313Z 10004KT 21/07 A3004 RMK A01 T02070073  RH  043%=      5-min Rain = 0
KGU1 250314Z 08004KT 21/07 A3004 RMK A01 T02050073  RH  044%=      5-min Rain = 0
KGU1 250315Z 07004KT 20/07 A3004 RMK A01 T02040073  RH  044%=      5-min Rain = 0
KGU1 250316Z 07004KT 20/07 A3005 RMK A01 T02030072  RH  044%=      5-min Rain = 0
KGU1 250317Z 06004KT 20/07 A3005 RMK A01 T02020072  RH  044%=      5-min Rain = 0
KGU1 250318Z 05005KT 20/07 A3005 RMK A01 T02000073  RH  045%=      5-min Rain = 0
KGU1 250319Z 05005KT 20/07 A3005 RMK A01 T01990073  RH  045%=      5-min Rain = 0
KGU1 250320Z 04006KT 20/07 A3005 RMK A01 T01980072  RH  045%=      5-min Rain = 0
KGU1 250321Z 02006KT 20/07 A3005 RMK A01 T01980071  RH  045%=      5-min Rain = 0
KGU1 250322Z 02005KT 20/07 A3005 RMK A01 T01990067  RH  044%=      5-min Rain = 0
KGU1 250323Z 02003KT 20/07 A3005 RMK A01 T01990065  RH  043%=      5-min Rain = 0
KGU1 250324Z 01008KT 20/07 A3005 RMK A01 T02000068  RH  044%=      5-min Rain = 0
KGU1 250325Z 01009KT 20/08 A3005 RMK A01 T02020075  RH  045%=      5-min Rain = 0
KGU1 250326Z 36006KT 21/07 A3006 RMK A01 T02050073  RH  044%=      5-min Rain = 0
KGU1 250327Z 02006KT 21/07 A3006 RMK A01 T02050073  RH  043%=      5-min Rain = 0
KGU1 250328Z 01006KT 21/08 A3006 RMK A01 T02050076  RH  045%=      5-min Rain = 0
KGU1 250329Z 02006KT 21/08 A3006 RMK A01 T02050080  RH  046%=      5-min Rain = 0
KGU1 250330Z 02005KT 21/08 A3006 RMK A01 T02050082  RH  046%=      5-min Rain = 0
KGU1 250331Z 02007KT 20/08 A3006 RMK A01 T02040084  RH  047%=      5-min Rain = 0
KGU1 250332Z 02007KT 20/09 A3006 RMK A01 T02040089  RH  049%=      5-min Rain = 0
KGU1 250333Z 01008G13KT 21/09 A3006 RMK A01 T02050092  RH  050%=      5-min Rain = 0
KGU1 250334Z 01007KT 21/10 A3006 RMK A01 T02060099  RH  052%=      5-min Rain = 0
KGU1 250335Z 36008KT 21/10 A3006 RMK A01 T02060100  RH  052%=      5-min Rain = 0
KGU1 250336Z 01005KT 21/10 A3006 RMK A01 T02070103  RH  053%=      5-min Rain = 0
KGU1 250337Z 01006KT 21/10 A3006 RMK A01 T02060104  RH  054%=      5-min Rain = 0
KGU1 250338Z 02005KT 21/11 A3006 RMK A01 T02060107  RH  055%=      5-min Rain = 0
KGU1 250339Z 02005KT 21/11 A3006 RMK A01 T02070109  RH  055%=      5-min Rain = 0
KGU1 250340Z 03004KT 21/11 A3006 RMK A01 T02070109  RH  055%=      5-min Rain = 0
KGU1 250341Z 04007KT 21/11 A3006 RMK A01 T02060110  RH  056%=      5-min Rain = 0
KGU1 250342Z 02007KT 21/11 A3006 RMK A01 T02060112  RH  057%=      5-min Rain = 0
KGU1 250343Z 02006KT 21/11 A3006 RMK A01 T02070112  RH  057%=      5-min Rain = 0
KGU1 250344Z 05006KT 21/11 A3007 RMK A01 T02070112  RH  057%=      5-min Rain = 0
KGU1 250345Z 04005KT 21/11 A3007 RMK A01 T02070114  RH  057%=      5-min Rain = 0
KGU1 250346Z 06004KT 21/11 A3007 RMK A01 T02070114  RH  057%=      5-min Rain = 0
KGU1 250347Z 07002KT 21/12 A3007 RMK A01 T02080115  RH  057%=      5-min Rain = 0
KGU1 250348Z 04004KT 21/12 A3007 RMK A01 T02080115  RH  057%=      5-min Rain = 0
KGU1 250349Z 07005KT 21/11 A3007 RMK A01 T02080114  RH  057%=      5-min Rain = 0
KGU1 250350Z 08004KT 21/12 A3007 RMK A01 T02070115  RH  057%=      5-min Rain = 0
KGU1 250351Z 04004KT 21/11 A3007 RMK A01 T02070114  RH  057%=      5-min Rain = 0
KGU1 250352Z 00004KT 21/11 A3007 RMK A01 T02070113  RH  057%=      5-min Rain = 0
KGU1 250353Z 35005KT 21/11 A3007 RMK A01 T02060113  RH  057%=      5-min Rain = 0
KGU1 250354Z 01004KT 20/11 A3007 RMK A01 T02040113  RH  058%=      5-min Rain = 0
KGU1 250355Z 36003KT 20/11 A3007 RMK A01 T02040114  RH  058%=      5-min Rain = 0
KGU1 250356Z 01003KT 20/11 A3007 RMK A01 T02040113  RH  058%=      5-min Rain = 0
KGU1 250357Z 03004KT 20/11 A3007 RMK A01 T02030113  RH  058%=      5-min Rain = 0
KGU1 250358Z 02006KT 20/11 A3007 RMK A01 T02020113  RH  059%=      5-min Rain = 0
KGU1 250359Z 02005KT 20/11 A3007 RMK A01 T02020114  RH  059%=      5-min Rain = 0
KGU1 250400Z 02005KT 20/12 A3007 RMK A01 T02030115  RH  059%=      5-min Rain = 0
KGU1 250401Z 06003KT 20/12 A3007 RMK A01 T02040115  RH  059%=      5-min Rain = 0
KGU1 250402Z 07000KT 21/12 A3007 RMK A01 T02050116  RH  059%=      5-min Rain = 0
KGU1 250403Z 05003KT 21/12 A3007 RMK A01 T02050115  RH  058%=      5-min Rain = 0
KGU1 250404Z 02003KT 21/12 A3007 RMK A01 T02060115  RH  058%=      5-min Rain = 0
KGU1 250405Z 01004KT 21/12 A3007 RMK A01 T02060115  RH  058%=      5-min Rain = 0
KGU1 250406Z 01007KT 21/12 A3007 RMK A01 T02060115  RH  058%=      5-min Rain = 0
KGU1 250407Z 35005KT 21/12 A3007 RMK A01 T02060115  RH  058%=      5-min Rain = 0
KGU1 250408Z 34005KT 21/11 A3007 RMK A01 T02050114  RH  058%=      5-min Rain = 0
KGU1 250409Z 02007KT 21/11 A3007 RMK A01 T02050114  RH  058%=      5-min Rain = 0
KGU1 250410Z 01004KT 21/12 A3007 RMK A01 T02070115  RH  058%=      5-min Rain = 0
KGU1 250411Z 34007KT 21/12 A3007 RMK A01 T02080115  RH  057%=      5-min Rain = 0
KGU1 250412Z 31003KT 21/12 A3007 RMK A01 T02100115  RH  057%=      5-min Rain = 0
KGU1 250413Z 33004KT 21/11 A3007 RMK A01 T02100114  RH  056%=      5-min Rain = 0
KGU1 250414Z 35005KT 21/11 A3007 RMK A01 T02100114  RH  056%=      5-min Rain = 0
KGU1 250415Z 34003KT 21/12 A3007 RMK A01 T02110115  RH  056%=      5-min Rain = 0
KGU1 250416Z 32007KT 21/11 A3007 RMK A01 T02100114  RH  056%=      5-min Rain = 0
KGU1 250417Z 32006KT 21/11 A3007 RMK A01 T02090113  RH  056%=      5-min Rain = 0
KGU1 250418Z 00005KT 21/11 A3007 RMK A01 T02070113  RH  057%=      5-min Rain = 0
KGU1 250419Z 36006KT 21/11 A3007 RMK A01 T02060114  RH  057%=      5-min Rain = 0
KGU1 250420Z 05004KT 21/11 A3007 RMK A01 T02080114  RH  057%=      5-min Rain = 0
KGU1 250421Z 08001KT 21/11 A3007 RMK A01 T02080114  RH  057%=      5-min Rain = 0
KGU1 250422Z 33002KT 21/11 A3007 RMK A01 T02080114  RH  057%=      5-min Rain = 0
KGU1 250423Z 29001KT 21/11 A3007 RMK A01 T02080113  RH  057%=      5-min Rain = 0
KGU1 250424Z 14000KT 21/11 A3007 RMK A01 T02070114  RH  057%=      5-min Rain = 0
KGU1 250425Z 12001KT 21/11 A3007 RMK A01 T02070114  RH  057%=      5-min Rain = 0
KGU1 250426Z 31000KT 21/11 A3007 RMK A01 T02070114  RH  057%=      5-min Rain = 0
KGU1 250427Z 01000KT 21/11 A3007 RMK A01 T02060113  RH  057%=      5-min Rain = 0
KGU1 250428Z 03001KT 21/11 A3008 RMK A01 T02060114  RH  057%=      5-min Rain = 0
KGU1 250429Z 01000KT 21/11 A3008 RMK A01 T02060113  RH  057%=      5-min Rain = 0
KGU1 250430Z 32001KT 21/11 A3008 RMK A01 T02060113  RH  057%=      5-min Rain = 0
KGU1 250431Z 33002KT 21/11 A3007 RMK A01 T02050113  RH  057%=      5-min Rain = 0
KGU1 250432Z 00003KT 20/11 A3007 RMK A01 T02040112  RH  058%=      5-min Rain = 0
KGU1 250433Z 03003KT 20/11 A3007 RMK A01 T02030112  RH  058%=      5-min Rain = 0
KGU1 250434Z 04003KT 20/11 A3007 RMK A01 T02030113  RH  058%=      5-min Rain = 0
KGU1 250435Z 16002KT 20/12 A3007 RMK A01 T02040115  RH  059%=      5-min Rain = 0
KGU1 250436Z 16003KT 21/12 A3007 RMK A01 T02070115  RH  058%=      5-min Rain = 0
KGU1 250437Z 18001KT 21/11 A3007 RMK A01 T02080114  RH  057%=      5-min Rain = 0
KGU1 250438Z 36003KT 21/11 A3007 RMK A01 T02080114  RH  057%=      5-min Rain = 0
KGU1 250439Z 35004KT 21/11 A3007 RMK A01 T02080114  RH  057%=      5-min Rain = 0
KGU1 250440Z 36002KT 21/11 A3007 RMK A01 T02090114  RH  056%=      5-min Rain = 0
KGU1 250441Z 03001KT 21/11 A3007 RMK A01 T02090112  RH  056%=      5-min Rain = 0
KGU1 250442Z 07001KT 21/11 A3008 RMK A01 T02070112  RH  056%=      5-min Rain = 0
KGU1 250443Z 11001KT 21/11 A3008 RMK A01 T02060112  RH  057%=      5-min Rain = 0
KGU1 250444Z 09001KT 21/11 A3008 RMK A01 T02050113  RH  057%=      5-min Rain = 0
KGU1 250445Z 32000KT 21/11 A3008 RMK A01 T02050113  RH  057%=      5-min Rain = 0
KGU1 250446Z 01001KT 20/11 A3008 RMK A01 T02040113  RH  058%=      5-min Rain = 0
KGU1 250447Z 01002KT 20/11 A3008 RMK A01 T02030112  RH  058%=      5-min Rain = 0
KGU1 250448Z 01003KT 20/11 A3008 RMK A01 T02030112  RH  058%=      5-min Rain = 0
KGU1 250449Z 00005KT 20/11 A3008 RMK A01 T02010111  RH  058%=      5-min Rain = 0
KGU1 250450Z 35006KT 20/11 A3008 RMK A01 T02020112  RH  058%=      5-min Rain = 0
KGU1 250451Z 00006KT 20/11 A3008 RMK A01 T02010111  RH  058%=      5-min Rain = 0
KGU1 250452Z 01005KT 20/11 A3007 RMK A01 T02010111  RH  058%=      5-min Rain = 0
KGU1 250453Z 02005KT 20/11 A3007 RMK A01 T02010112  RH  058%=      5-min Rain = 0
KGU1 250454Z 03006KT 20/11 A3007 RMK A01 T02010111  RH  058%=      5-min Rain = 0
KGU1 250455Z 03006KT 20/11 A3007 RMK A01 T02020111  RH  058%=      5-min Rain = 0
KGU1 250456Z 01004KT 20/11 A3008 RMK A01 T02030111  RH  058%=      5-min Rain = 0
KGU1 250457Z 02005KT 20/11 A3008 RMK A01 T02030111  RH  057%=      5-min Rain = 0
KGU1 250458Z 06002KT 20/11 A3008 RMK A01 T02030111  RH  058%=      5-min Rain = 0
KGU1 250459Z 07002KT 20/11 A3008 RMK A01 T02030111  RH  058%=      5-min Rain = 0

Page generated in 0.1376 seconds.